Time,TemperatureF,DewpointF,PressureIn,WindDirection,WindDirectionDegrees,WindSpeedMPH,WindSpeedGustMPH,Humidity,HourlyPrecipIn,Conditions,Clouds,dailyrainin,SoftwareType,DateUTC
2013-01-08 00:00:00,26.3,20.7,30.25,SSW,199,14.6,23.0,79,0.00,CLR,OVC,0.00,WeatherDisplay:10.37,2013-01-08 05:00:00,
2013-01-08 00:01:00,26.3,20.7,30.25,SSW,195,13.1,16.1,79,0.00,CLR,OVC,0.00,WeatherDisplay:10.37,2013-01-08 05:01:00,
2013-01-08 00:03:00,26.3,20.7,30.24,South,191,13.8,18.4,79,0.00,CLR,OVC,0.00,WeatherDisplay:10.37,2013-01-08 05:03:00,
2013-01-08 00:05:00,26.2,20.6,30.24,SSW,192,14.2,17.3,79,0.00,CLR,OVC,0.00,WeatherDisplay:10.37,2013-01-08 05:05:00,
2013-01-08 00:06:00,26.2,20.6,30.24,South,186,12.1,17.3,79,0.00,CLR,OVC,0.00,WeatherDisplay:10.37,2013-01-08 05:06:00,
2013-01-08 00:08:00,26.2,20.6,30.24,SSW,198,11.9,17.3,79,0.00,CLR,OVC,0.00,WeatherDisplay:10.37,2013-01-08 05:08:00,
2013-01-08 00:10:00,26.2,20.6,30.24,SSW,197,14.3,18.4,79,0.00,CLR,OVC,0.00,WeatherDisplay:10.37,2013-01-08 05:10:00,
2013-01-08 00:11:00,26.2,20.6,30.24,South,191,14.7,18.4,79,0.00,CLR,OVC,0.00,WeatherDisplay:10.37,2013-01-08 05:11:00,
2013-01-08 00:13:00,26.2,20.6,30.24,SSW,201,12.1,19.6,79,0.00,CLR,OVC,0.00,WeatherDisplay:10.37,2013-01-08 05:13:00,
2013-01-08 00:15:00,26.2,20.6,30.24,SSW,199,13.9,19.6,79,0.00,CLR,OVC,0.00,WeatherDisplay:10.37,2013-01-08 05:15:00,
2013-01-08 00:16:00,26.2,20.6,30.24,SSW,200,13.2,19.6,79,0.00,CLR,OVC,0.00,WeatherDisplay:10.37,2013-01-08 05:16:00,
2013-01-08 00:18:00,26.1,20.5,30.25,SSW,212,11.4,15.0,79,0.00,CLR,OVC,0.00,WeatherDisplay:10.37,2013-01-08 05:18:00,
2013-01-08 00:21:00,26.1,20.5,30.24,SSW,208,10.6,19.6,79,0.00,CLR,OVC,0.00,WeatherDisplay:10.37,2013-01-08 05:21:00,
2013-01-08 00:22:00,26.1,20.5,30.24,SSW,201,10.5,17.3,79,0.00,CLR,OVC,0.00,WeatherDisplay:10.37,2013-01-08 05:22:00,
2013-01-08 00:24:00,26.2,20.9,30.24,SSW,199,10.4,17.3,80,0.00,CLR,OVC,0.00,WeatherDisplay:10.37,2013-01-08 05:24:00,
2013-01-08 00:26:00,26.2,20.6,30.24,SSW,207,13.4,17.3,79,0.00,CLR,OVC,0.00,WeatherDisplay:10.37,2013-01-08 05:26:00,
2013-01-08 00:27:00,26.1,20.5,30.24,SSW,201,11.8,15.0,79,0.00,CLR,OVC,0.00,WeatherDisplay:10.37,2013-01-08 05:27:00,
2013-01-08 00:29:00,26.1,20.8,30.24,SSW,199,13.3,20.7,80,0.00,CLR,OVC,0.00,WeatherDisplay:10.37,2013-01-08 05:29:00,
2013-01-08 00:31:00,26.1,20.5,30.24,SSW,208,10.2,13.8,79,0.00,CLR,OVC,0.00,WeatherDisplay:10.37,2013-01-08 05:31:00,
2013-01-08 00:32:00,26.1,20.5,30.24,SSW,199,9.4,12.7,79,0.00,CLR,OVC,0.00,WeatherDisplay:10.37,2013-01-08 05:32:00,
2013-01-08 00:34:00,26.0,20.4,30.24,SSW,197,12.7,16.0,79,0.00,CLR,OVC,0.00,WeatherDisplay:10.37,2013-01-08 05:34:00,
2013-01-08 00:36:00,26.0,20.4,30.24,SW,215,11.7,16.1,79,0.00,CLR,OVC,0.00,WeatherDisplay:10.37,2013-01-08 05:36:00,
2013-01-08 00:37:00,26.0,20.4,30.24,SSW,205,12.2,17.3,79,0.00,CLR,OVC,0.00,WeatherDisplay:10.37,2013-01-08 05:37:00,
2013-01-08 00:40:00,25.9,20.3,30.24,SSW,205,11.5,15.0,79,0.00,CLR,OVC,0.00,WeatherDisplay:10.37,2013-01-08 05:40:00,
2013-01-08 00:41:00,25.9,20.3,30.24,SSW,213,11.6,15.0,79,0.00,CLR,OVC,0.00,WeatherDisplay:10.37,2013-01-08 05:41:00,
2013-01-08 00:42:00,25.8,20.2,30.24,SW,214,13.4,18.4,79,0.00,CLR,OVC,0.00,WeatherDisplay:10.37,2013-01-08 05:42:00,
2013-01-08 00:45:00,25.3,19.4,30.24,SW,220,13.5,18.4,78,0.00,CLR,OVC,0.00,WeatherDisplay:10.37,2013-01-08 05:45:00,
2013-01-08 00:46:00,24.9,19.0,30.24,SW,218,13.5,15.0,78,0.00,CLR,OVC,0.00,WeatherDisplay:10.37,2013-01-08 05:46:00,
2013-01-08 00:47:00,24.5,18.6,30.24,SW,216,15.3,17.3,78,0.00,CLR,OVC,0.00,WeatherDisplay:10.37,2013-01-08 05:47:00,
2013-01-08 00:48:00,24.5,18.6,30.24,SSW,213,15.4,17.3,78,0.00,CLR,OVC,0.00,WeatherDisplay:10.37,2013-01-08 05:48:00,
2013-01-08 00:50:00,24.3,19.0,30.23,SSW,202,12.5,15.0,80,0.00,CLR,OVC,0.00,WeatherDisplay:10.37,2013-01-08 05:50:00,
2013-01-08 00:52:00,24.4,19.1,30.23,SSW,205,14.4,17.3,80,0.00,CLR,OVC,0.00,WeatherDisplay:10.37,2013-01-08 05:52:00,
2013-01-08 00:53:00,24.4,19.1,30.23,SSW,206,14.2,19.6,80,0.00,CLR,OVC,0.00,WeatherDisplay:10.37,2013-01-08 05:53:00,
2013-01-08 00:55:00,24.3,19.0,30.22,SSW,206,14.8,18.4,80,0.00,CLR,OVC,0.00,WeatherDisplay:10.37,2013-01-08 05:55:00,
2013-01-08 00:57:00,24.3,19.3,30.22,SSW,213,14.9,19.6,81,0.00,CLR,OVC,0.00,WeatherDisplay:10.37,2013-01-08 05:57:00,
2013-01-08 00:58:00,24.4,19.4,30.22,SW,216,14.8,19.6,81,0.00,CLR,OVC,0.00,WeatherDisplay:10.37,2013-01-08 05:58:00,
2013-01-08 01:00:00,24.6,19.6,30.22,SW,215,17.9,23.0,81,0.00,CLR,OVC,0.00,WeatherDisplay:10.37,2013-01-08 06:00:00,
2013-01-08 01:02:00,24.8,19.8,30.22,SSW,210,14.3,20.7,81,0.00,CLR,OVC,0.00,WeatherDisplay:10.37,2013-01-08 06:02:00,
2013-01-08 01:03:00,24.8,19.8,30.22,SW,214,14.4,18.4,81,0.00,CLR,OVC,0.00,WeatherDisplay:10.37,2013-01-08 06:03:00,
2013-01-08 01:05:00,25.1,20.4,30.22,SSW,192,12.6,19.6,82,0.00,CLR,OVC,0.00,WeatherDisplay:10.37,2013-01-08 06:05:00,
2013-01-08 01:07:00,25.4,20.4,30.22,SW,215,12.5,19.0,81,0.00,CLR,OVC,0.00,WeatherDisplay:10.37,2013-01-08 06:07:00,
2013-01-08 01:08:00,25.5,20.8,30.22,SSW,210,14.1,19.6,82,0.00,CLR,OVC,0.00,WeatherDisplay:10.37,2013-01-08 06:08:00,
2013-01-08 01:11:00,25.9,20.9,30.22,SSW,203,14.4,19.6,81,0.00,CLR,OVC,0.00,WeatherDisplay:10.37,2013-01-08 06:11:00,
2013-01-08 01:12:00,26.2,21.2,30.21,SSW,207,15.2,19.6,81,0.00,CLR,OVC,0.00,WeatherDisplay:10.37,2013-01-08 06:12:00,
2013-01-08 01:13:00,26.2,21.2,30.21,SSW,206,15.4,19.6,81,0.00,CLR,OVC,0.00,WeatherDisplay:10.37,2013-01-08 06:13:00,
2013-01-08 01:16:00,26.5,21.2,30.21,SSW,204,15.1,19.6,80,0.00,CLR,OVC,0.00,WeatherDisplay:10.37,2013-01-08 06:16:00,
2013-01-08 01:17:00,26.6,21.3,30.21,SSW,207,14.4,18.4,80,0.00,CLR,OVC,0.00,WeatherDisplay:10.37,2013-01-08 06:17:00,
2013-01-08 01:18:00,26.7,21.4,30.21,SSW,208,13.2,18.4,80,0.00,CLR,OVC,0.00,WeatherDisplay:10.37,2013-01-08 06:18:00,
2013-01-08 01:21:00,26.8,21.2,30.20,SSW,203,14.5,23.0,79,0.00,CLR,OVC,0.00,WeatherDisplay:10.37,2013-01-08 06:21:00,
2013-01-08 01:23:00,26.9,21.3,30.20,SSW,206,14.3,19.6,79,0.00,CLR,OVC,0.00,WeatherDisplay:10.37,2013-01-08 06:23:00,
2013-01-08 01:24:00,27.0,21.4,30.21,SSW,192,14.4,20.7,79,0.00,CLR,OVC,0.00,WeatherDisplay:10.37,2013-01-08 06:24:00,
2013-01-08 01:26:00,27.0,21.4,30.20,SSW,212,13.9,19.6,79,0.00,CLR,OVC,0.00,WeatherDisplay:10.37,2013-01-08 06:26:00,
2013-01-08 01:28:00,27.0,21.1,30.21,SSW,209,13.2,19.6,78,0.00,CLR,OVC,0.00,WeatherDisplay:10.37,2013-01-08 06:28:00,
2013-01-08 01:29:00,27.1,21.2,30.21,SSW,194,14.5,19.6,78,0.00,CLR,OVC,0.00,WeatherDisplay:10.37,2013-01-08 06:29:00,
2013-01-08 01:31:00,27.1,21.2,30.20,South,191,15.0,19.6,78,0.00,CLR,OVC,0.00,WeatherDisplay:10.37,2013-01-08 06:31:00,
2013-01-08 01:33:00,27.2,21.2,30.20,SSW,199,12.3,19.0,78,0.00,CLR,OVC,0.00,WeatherDisplay:10.37,2013-01-08 06:33:00,
2013-01-08 01:34:00,27.2,21.2,30.20,South,189,16.1,19.6,78,0.00,CLR,OVC,0.00,WeatherDisplay:10.37,2013-01-08 06:34:00,
2013-01-08 01:36:00,27.4,21.4,30.20,SSW,194,13.1,19.6,78,0.00,CLR,OVC,0.00,WeatherDisplay:10.37,2013-01-08 06:36:00,
2013-01-08 01:38:00,27.4,21.1,30.21,SSW,210,14.5,20.7,77,0.00,CLR,OVC,0.00,WeatherDisplay:10.37,2013-01-08 06:38:00,
2013-01-08 01:39:00,27.5,21.2,30.21,SSW,205,13.5,21.9,77,0.00,CLR,OVC,0.00,WeatherDisplay:10.37,2013-01-08 06:39:00,
2013-01-08 01:41:00,27.5,21.2,30.21,SSW,201,13.8,19.6,77,0.00,CLR,OVC,0.00,WeatherDisplay:10.37,2013-01-08 06:41:00,
2013-01-08 01:43:00,27.5,21.2,30.21,SSW,206,15.3,21.9,77,0.00,CLR,OVC,0.00,WeatherDisplay:10.37,2013-01-08 06:43:00,
2013-01-08 01:44:00,27.4,21.1,30.21,SSW,199,13.0,21.9,77,0.00,CLR,OVC,0.00,WeatherDisplay:10.37,2013-01-08 06:44:00,
2013-01-08 01:47:00,27.4,21.1,30.21,SSW,203,14.9,19.6,77,0.00,CLR,OVC,0.00,WeatherDisplay:10.37,2013-01-08 06:47:00,
2013-01-08 01:48:00,27.4,21.1,30.20,South,189,17.2,24.0,77,0.00,CLR,OVC,0.00,WeatherDisplay:10.37,2013-01-08 06:48:00,
2013-01-08 01:49:00,27.4,21.1,30.20,SSW,200,16.0,20.7,77,0.00,CLR,OVC,0.00,WeatherDisplay:10.37,2013-01-08 06:49:00,
2013-01-08 01:52:00,27.4,20.8,30.20,SSW,202,16.6,21.9,76,0.00,CLR,OVC,0.00,WeatherDisplay:10.37,2013-01-08 06:52:00,
2013-01-08 01:54:00,27.5,21.2,30.20,SSW,205,19.4,26.5,77,0.00,CLR,OVC,0.00,WeatherDisplay:10.37,2013-01-08 06:54:00,
2013-01-08 01:57:00,27.7,21.1,30.20,SSW,206,16.0,24.2,76,0.00,CLR,OVC,0.00,WeatherDisplay:10.37,2013-01-08 06:57:00,
2013-01-08 01:59:00,27.8,21.2,30.21,South,187,17.8,24.2,76,0.00,CLR,OVC,0.00,WeatherDisplay:10.37,2013-01-08 06:59:00,
2013-01-08 02:02:00,27.9,21.3,30.21,SSW,197,17.1,25.3,76,0.00,CLR,OVC,0.00,WeatherDisplay:10.37,2013-01-08 07:02:00,
2013-01-08 02:04:00,28.1,21.5,30.20,SSW,193,20.3,26.5,76,0.00,CLR,OVC,0.00,WeatherDisplay:10.37,2013-01-08 07:04:00,
2013-01-08 02:07:00,28.2,21.3,30.20,South,182,17.6,29.9,75,0.00,CLR,OVC,0.00,WeatherDisplay:10.37,2013-01-08 07:07:00,
2013-01-08 02:09:00,28.2,21.3,30.20,South,185,19.8,25.3,75,0.00,CLR,OVC,0.00,WeatherDisplay:10.37,2013-01-08 07:09:00,
2013-01-08 02:12:00,28.3,21.4,30.20,SSW,199,19.3,26.5,75,0.00,CLR,OVC,0.00,WeatherDisplay:10.37,2013-01-08 07:12:00,
2013-01-08 02:14:00,28.3,21.4,30.20,SSW,192,20.4,26.5,75,0.00,CLR,OVC,0.00,WeatherDisplay:10.37,2013-01-08 07:14:00,
2013-01-08 02:17:00,28.3,21.4,30.20,South,191,18.2,34.5,75,0.00,CLR,OVC,0.00,WeatherDisplay:10.37,2013-01-08 07:17:00,
2013-01-08 02:19:00,28.3,21.4,30.20,SSW,195,19.6,26.5,75,0.00,CLR,OVC,0.00,WeatherDisplay:10.37,2013-01-08 07:19:00,
2013-01-08 02:22:00,28.2,21.3,30.21,SSW,193,19.2,27.6,75,0.00,CLR,OVC,0.00,WeatherDisplay:10.37,2013-01-08 07:22:00,
2013-01-08 02:24:00,28.2,21.3,30.21,South,191,19.3,32.2,75,0.00,CLR,OVC,0.00,WeatherDisplay:10.37,2013-01-08 07:24:00,
2013-01-08 02:27:00,28.2,21.3,30.21,South,189,22.6,26.5,75,0.00,CLR,OVC,0.00,WeatherDisplay:10.37,2013-01-08 07:27:00,
2013-01-08 02:29:00,28.2,21.3,30.21,South,189,20.1,25.3,75,0.00,CLR,OVC,0.00,WeatherDisplay:10.37,2013-01-08 07:29:00,
2013-01-08 02:30:00,28.2,21.3,30.21,South,191,20.3,26.5,75,0.00,CLR,OVC,0.00,WeatherDisplay:10.37,2013-01-08 07:30:00,
2013-01-08 02:32:00,28.1,21.2,30.21,SSW,192,18.1,25.3,75,0.00,CLR,OVC,0.00,WeatherDisplay:10.37,2013-01-08 07:32:00,
2013-01-08 02:34:00,28.0,21.1,30.20,SSW,192,15.0,26.0,75,0.00,CLR,OVC,0.00,WeatherDisplay:10.37,2013-01-08 07:34:00,
2013-01-08 02:35:00,28.0,21.1,30.20,South,182,17.9,23.0,75,0.00,CLR,OVC,0.00,WeatherDisplay:10.37,2013-01-08 07:35:00,
2013-01-08 02:38:00,28.0,21.1,30.20,SSW,197,19.5,27.0,75,0.00,CLR,OVC,0.00,WeatherDisplay:10.37,2013-01-08 07:38:00,
2013-01-08 02:39:00,28.1,21.2,30.20,South,184,20.4,28.8,75,0.00,CLR,OVC,0.00,WeatherDisplay:10.37,2013-01-08 07:39:00,
2013-01-08 02:40:00,28.1,21.2,30.20,South,180,21.3,27.6,75,0.00,CLR,OVC,0.00,WeatherDisplay:10.37,2013-01-08 07:40:00,
2013-01-08 02:43:00,28.2,21.3,30.20,South,179,22.7,33.4,75,0.00,CLR,OVC,0.00,WeatherDisplay:10.37,2013-01-08 07:43:00,
2013-01-08 02:44:00,28.2,21.3,30.19,South,188,20.0,33.0,75,0.00,CLR,OVC,0.00,WeatherDisplay:10.37,2013-01-08 07:44:00,
2013-01-08 02:45:00,28.2,21.3,30.19,South,188,18.9,25.3,75,0.00,CLR,OVC,0.00,WeatherDisplay:10.37,2013-01-08 07:45:00,
2013-01-08 02:48:00,28.3,21.4,30.19,South,181,18.2,27.6,75,0.00,CLR,OVC,0.00,WeatherDisplay:10.37,2013-01-08 07:48:00,
2013-01-08 02:49:00,28.3,21.4,30.19,South,189,19.1,27.6,75,0.00,CLR,OVC,0.00,WeatherDisplay:10.37,2013-01-08 07:49:00,
2013-01-08 02:50:00,28.4,21.5,30.19,South,187,24.1,31.1,75,0.00,CLR,OVC,0.00,WeatherDisplay:10.37,2013-01-08 07:50:00,
2013-01-08 02:54:00,28.4,21.5,30.19,South,187,17.8,26.5,75,0.00,CLR,OVC,0.00,WeatherDisplay:10.37,2013-01-08 07:54:00,
2013-01-08 02:55:00,28.4,21.5,30.18,South,190,21.1,27.6,75,0.00,CLR,OVC,0.00,WeatherDisplay:10.37,2013-01-08 07:55:00,
2013-01-08 02:59:00,28.4,21.5,30.18,South,191,17.4,26.5,75,0.00,CLR,OVC,0.00,WeatherDisplay:10.37,2013-01-08 07:59:00,
2013-01-08 03:00:00,28.4,21.5,30.18,South,183,20.3,32.2,75,0.00,CLR,OVC,0.00,WeatherDisplay:10.37,2013-01-08 08:00:00,
2013-01-08 03:02:00,28.4,21.5,30.18,South,190,22.4,29.0,75,0.00,CLR,OVC,0.00,WeatherDisplay:10.37,2013-01-08 08:02:00,
2013-01-08 03:04:00,28.4,21.5,30.18,South,172,16.5,35.7,75,0.00,CLR,OVC,0.00,WeatherDisplay:10.37,2013-01-08 08:04:00,
2013-01-08 03:05:00,28.4,21.5,30.18,South,182,17.0,23.0,75,0.00,CLR,OVC,0.00,WeatherDisplay:10.37,2013-01-08 08:05:00,
2013-01-08 03:06:00,28.3,21.4,30.17,South,175,21.8,27.6,75,0.00,CLR,OVC,0.00,WeatherDisplay:10.37,2013-01-08 08:06:00,
2013-01-08 03:07:00,28.4,21.5,30.17,South,175,17.5,28.8,75,0.00,CLR,OVC,0.00,WeatherDisplay:10.37,2013-01-08 08:07:00,
2013-01-08 03:09:00,28.4,21.5,30.17,South,187,24.2,40.3,75,0.00,CLR,OVC,0.00,WeatherDisplay:10.37,2013-01-08 08:09:00,
2013-01-08 03:10:00,28.4,21.5,30.17,SSW,196,23.8,40.3,75,0.00,CLR,OVC,0.00,WeatherDisplay:10.37,2013-01-08 08:10:00,
2013-01-08 03:11:00,28.4,21.5,30.17,South,183,19.2,32.2,75,0.00,CLR,OVC,0.00,WeatherDisplay:10.37,2013-01-08 08:11:00,
2013-01-08 03:12:00,28.5,21.6,30.17,South,190,17.3,26.0,75,0.00,CLR,OVC,0.00,WeatherDisplay:10.37,2013-01-08 08:12:00,
2013-01-08 03:15:00,28.5,21.6,30.17,SSW,193,23.6,33.4,75,0.00,CLR,OVC,0.00,WeatherDisplay:10.37,2013-01-08 08:15:00,
2013-01-08 03:16:00,28.5,21.6,30.17,South,183,21.5,33.4,75,0.00,CLR,OVC,0.00,WeatherDisplay:10.37,2013-01-08 08:16:00,
2013-01-08 03:17:00,28.5,21.6,30.17,South,185,22.0,32.2,75,0.00,CLR,OVC,0.00,WeatherDisplay:10.37,2013-01-08 08:17:00,
2013-01-08 03:20:00,28.5,21.6,30.17,South,188,23.6,36.8,75,0.00,CLR,OVC,0.00,WeatherDisplay:10.37,2013-01-08 08:20:00,
2013-01-08 03:21:00,28.6,21.7,30.16,SSW,198,23.2,33.4,75,0.00,CLR,OVC,0.00,WeatherDisplay:10.37,2013-01-08 08:21:00,
2013-01-08 03:22:00,28.5,21.6,30.16,SSW,196,22.0,33.4,75,0.00,CLR,OVC,0.00,WeatherDisplay:10.37,2013-01-08 08:22:00,
2013-01-08 03:25:00,28.6,21.7,30.16,South,169,23.9,34.5,75,0.00,CLR,OVC,0.00,WeatherDisplay:10.37,2013-01-08 08:25:00,
2013-01-08 03:26:00,28.6,21.7,30.17,South,191,22.3,29.9,75,0.00,CLR,OVC,0.00,WeatherDisplay:10.37,2013-01-08 08:26:00,
2013-01-08 03:27:00,28.6,21.7,30.17,South,190,24.3,29.9,75,0.00,CLR,OVC,0.00,WeatherDisplay:10.37,2013-01-08 08:27:00,
2013-01-08 03:30:00,28.6,21.7,30.16,South,190,20.1,28.8,75,0.00,CLR,OVC,0.00,WeatherDisplay:10.37,2013-01-08 08:30:00,
2013-01-08 03:32:00,28.6,21.7,30.16,SSW,197,23.4,27.6,75,0.00,CLR,OVC,0.00,WeatherDisplay:10.37,2013-01-08 08:32:00,
2013-01-08 03:35:00,28.7,21.8,30.16,South,172,18.5,26.5,75,0.00,CLR,OVC,0.00,WeatherDisplay:10.37,2013-01-08 08:35:00,
2013-01-08 03:37:00,28.7,21.8,30.16,South,191,21.5,33.4,75,0.00,CLR,OVC,0.00,WeatherDisplay:10.37,2013-01-08 08:37:00,
2013-01-08 03:40:00,28.8,21.9,30.16,SSW,192,20.6,33.4,75,0.00,CLR,OVC,0.00,WeatherDisplay:10.37,2013-01-08 08:40:00,
2013-01-08 03:42:00,28.8,21.9,30.16,South,177,21.7,29.9,75,0.00,CLR,OVC,0.00,WeatherDisplay:10.37,2013-01-08 08:42:00,
2013-01-08 03:45:00,28.2,21.3,30.17,SSW,196,22.0,32.2,75,0.00,CLR,OVC,0.00,WeatherDisplay:10.37,2013-01-08 08:45:00,
2013-01-08 03:47:00,28.3,21.4,30.17,SSE,167,20.8,28.8,75,0.00,CLR,OVC,0.00,WeatherDisplay:10.37,2013-01-08 08:47:00,
2013-01-08 03:50:00,28.3,21.4,30.17,South,185,16.8,24.2,75,0.00,CLR,OVC,0.00,WeatherDisplay:10.37,2013-01-08 08:50:00,
2013-01-08 03:51:00,28.3,21.4,30.17,SSW,195,18.0,21.9,75,0.00,CLR,OVC,0.00,WeatherDisplay:10.37,2013-01-08 08:51:00,
2013-01-08 03:52:00,28.4,21.5,30.17,South,190,17.4,26.5,75,0.00,CLR,OVC,0.00,WeatherDisplay:10.37,2013-01-08 08:52:00,
2013-01-08 03:53:00,28.4,21.5,30.17,SSW,198,16.8,24.2,75,0.00,CLR,OVC,0.00,WeatherDisplay:10.37,2013-01-08 08:53:00,
2013-01-08 03:55:00,28.5,21.6,30.17,South,190,14.8,26.5,75,0.00,CLR,OVC,0.00,WeatherDisplay:10.37,2013-01-08 08:55:00,
2013-01-08 03:56:00,28.5,21.6,30.17,SSE,164,12.3,26.5,75,0.00,CLR,OVC,0.00,WeatherDisplay:10.37,2013-01-08 08:56:00,
2013-01-08 03:57:00,28.5,21.6,30.17,South,176,14.4,20.7,75,0.00,CLR,OVC,0.00,WeatherDisplay:10.37,2013-01-08 08:57:00,
2013-01-08 03:58:00,28.5,21.6,30.17,SSW,192,15.3,19.6,75,0.00,CLR,OVC,0.00,WeatherDisplay:10.37,2013-01-08 08:58:00,
2013-01-08 04:01:00,28.5,21.6,30.17,South,178,12.9,26.5,75,0.00,CLR,OVC,0.00,WeatherDisplay:10.37,2013-01-08 09:01:00,
2013-01-08 04:02:00,28.6,21.7,30.17,South,187,18.1,26.5,75,0.00,CLR,OVC,0.00,WeatherDisplay:10.37,2013-01-08 09:02:00,
2013-01-08 04:03:00,28.6,21.7,30.17,SSW,195,15.3,19.6,75,0.00,CLR,OVC,0.00,WeatherDisplay:10.37,2013-01-08 09:03:00,
2013-01-08 04:06:00,28.6,21.7,30.18,South,171,12.5,23.0,75,0.00,CLR,OVC,0.00,WeatherDisplay:10.37,2013-01-08 09:06:00,
2013-01-08 04:07:00,28.6,21.7,30.18,SSW,201,20.5,26.5,75,0.00,CLR,OVC,0.00,WeatherDisplay:10.37,2013-01-08 09:07:00,
2013-01-08 04:08:00,28.6,21.7,30.18,South,185,16.9,21.9,75,0.00,CLR,OVC,0.00,WeatherDisplay:10.37,2013-01-08 09:08:00,
2013-01-08 04:11:00,28.6,21.7,30.18,South,186,13.7,18.4,75,0.00,CLR,OVC,0.00,WeatherDisplay:10.37,2013-01-08 09:11:00,
2013-01-08 04:12:00,28.6,21.7,30.18,South,189,16.0,19.6,75,0.00,CLR,OVC,0.00,WeatherDisplay:10.37,2013-01-08 09:12:00,
2013-01-08 04:14:00,28.6,21.7,30.18,South,188,15.7,20.7,75,0.00,CLR,OVC,0.00,WeatherDisplay:10.37,2013-01-08 09:14:00,
2013-01-08 04:17:00,28.5,21.6,30.18,South,184,19.5,27.0,75,0.00,CLR,OVC,0.00,WeatherDisplay:10.37,2013-01-08 09:17:00,
2013-01-08 04:19:00,28.5,21.6,30.17,South,188,19.9,29.9,75,0.00,CLR,OVC,0.00,WeatherDisplay:10.37,2013-01-08 09:19:00,
2013-01-08 04:22:00,28.6,21.7,30.17,South,180,21.0,27.6,75,0.00,CLR,OVC,0.00,WeatherDisplay:10.37,2013-01-08 09:22:00,
2013-01-08 04:23:00,28.5,21.6,30.17,SSW,194,19.6,25.3,75,0.00,CLR,OVC,0.00,WeatherDisplay:10.37,2013-01-08 09:23:00,
2013-01-08 04:24:00,28.5,21.6,30.17,South,190,19.3,26.5,75,0.00,CLR,OVC,0.00,WeatherDisplay:10.37,2013-01-08 09:24:00,
2013-01-08 04:27:00,28.5,21.6,30.17,SSW,200,23.7,27.6,75,0.00,CLR,OVC,0.00,WeatherDisplay:10.37,2013-01-08 09:27:00,
2013-01-08 04:28:00,28.5,21.6,30.17,SSW,193,23.3,29.9,75,0.00,CLR,OVC,0.00,WeatherDisplay:10.37,2013-01-08 09:28:00,
2013-01-08 04:29:00,28.5,21.6,30.17,SSW,193,20.2,32.2,75,0.00,CLR,OVC,0.00,WeatherDisplay:10.37,2013-01-08 09:29:00,
2013-01-08 04:32:00,28.4,21.5,30.17,SSW,197,18.8,26.5,75,0.00,CLR,OVC,0.00,WeatherDisplay:10.37,2013-01-08 09:32:00,
2013-01-08 04:33:00,28.4,21.5,30.17,SSW,193,19.1,25.3,75,0.00,CLR,OVC,0.00,WeatherDisplay:10.37,2013-01-08 09:33:00,
2013-01-08 04:34:00,28.4,21.5,30.17,South,191,19.1,33.0,75,0.00,CLR,OVC,0.00,WeatherDisplay:10.37,2013-01-08 09:34:00,
2013-01-08 04:38:00,28.4,21.8,30.17,SSW,196,20.2,25.0,76,0.00,CLR,OVC,0.00,WeatherDisplay:10.37,2013-01-08 09:38:00,
2013-01-08 04:39:00,28.4,21.5,30.18,SSW,197,17.7,25.3,75,0.00,CLR,OVC,0.00,WeatherDisplay:10.37,2013-01-08 09:39:00,
2013-01-08 04:43:00,28.4,21.5,30.18,SSW,197,16.0,22.0,75,0.00,CLR,OVC,0.00,WeatherDisplay:10.37,2013-01-08 09:43:00,
2013-01-08 04:44:00,28.3,21.7,30.17,South,191,19.5,25.3,76,0.00,CLR,OVC,0.00,WeatherDisplay:10.37,2013-01-08 09:44:00,
2013-01-08 04:48:00,28.4,21.8,30.18,SSW,199,15.2,25.3,76,0.00,CLR,OVC,0.00,WeatherDisplay:10.37,2013-01-08 09:48:00,
2013-01-08 04:49:00,28.4,21.8,30.18,South,191,15.9,21.9,76,0.00,CLR,OVC,0.00,WeatherDisplay:10.37,2013-01-08 09:49:00,
2013-01-08 04:53:00,28.4,21.8,30.19,South,190,14.4,19.6,76,0.00,CLR,OVC,0.00,WeatherDisplay:10.37,2013-01-08 09:53:00,
2013-01-08 04:54:00,28.4,21.5,30.19,SSW,204,14.2,21.0,75,0.00,CLR,OVC,0.00,WeatherDisplay:10.37,2013-01-08 09:54:00,
2013-01-08 04:58:00,28.6,22.0,30.19,SSW,200,17.2,23.0,76,0.00,CLR,OVC,0.00,WeatherDisplay:10.37,2013-01-08 09:58:00,
2013-01-08 04:59:00,28.5,21.9,30.19,SSW,198,20.2,27.6,76,0.00,CLR,OVC,0.00,WeatherDisplay:10.37,2013-01-08 09:59:00,
2013-01-08 05:03:00,28.6,21.7,30.19,SSW,203,15.3,17.3,75,0.00,CLR,OVC,0.00,WeatherDisplay:10.37,2013-01-08 10:03:00,
2013-01-08 05:04:00,28.6,21.7,30.19,SSW,198,15.7,24.2,75,0.00,CLR,OVC,0.00,WeatherDisplay:10.37,2013-01-08 10:04:00,
2013-01-08 05:08:00,28.6,22.0,30.19,SSW,208,17.9,24.2,76,0.00,CLR,OVC,0.00,WeatherDisplay:10.37,2013-01-08 10:08:00,
2013-01-08 05:09:00,28.5,21.9,30.19,SSW,207,15.1,24.2,76,0.00,CLR,OVC,0.00,WeatherDisplay:10.37,2013-01-08 10:09:00,
2013-01-08 05:10:00,28.6,22.0,30.19,South,187,18.9,22.0,76,0.00,CLR,OVC,0.00,WeatherDisplay:10.37,2013-01-08 10:10:00,
2013-01-08 05:13:00,28.4,21.5,30.19,SSW,205,15.2,19.6,75,0.00,CLR,OVC,0.00,WeatherDisplay:10.37,2013-01-08 10:13:00,
2013-01-08 05:14:00,28.4,21.5,30.19,SSW,210,14.6,19.6,75,0.00,CLR,OVC,0.00,WeatherDisplay:10.37,2013-01-08 10:14:00,
2013-01-08 05:15:00,28.4,21.8,30.19,SSW,200,17.8,25.3,76,0.00,CLR,OVC,0.00,WeatherDisplay:10.37,2013-01-08 10:15:00,
2013-01-08 05:19:00,28.3,21.7,30.20,SSW,206,13.7,20.7,76,0.00,CLR,OVC,0.00,WeatherDisplay:10.37,2013-01-08 10:19:00,
2013-01-08 05:20:00,28.2,21.3,30.19,SSW,203,12.4,20.7,75,0.00,CLR,OVC,0.00,WeatherDisplay:10.37,2013-01-08 10:20:00,
2013-01-08 05:24:00,27.8,21.5,30.19,SSW,204,15.2,20.7,77,0.00,CLR,OVC,0.00,WeatherDisplay:10.37,2013-01-08 10:24:00,
2013-01-08 05:25:00,27.8,21.2,30.20,SSW,197,12.5,23.0,76,0.00,CLR,OVC,0.00,WeatherDisplay:10.37,2013-01-08 10:25:00,
2013-01-08 05:29:00,28.1,21.8,30.20,SSW,203,12.7,16.1,77,0.00,CLR,OVC,0.00,WeatherDisplay:10.37,2013-01-08 10:29:00,
2013-01-08 05:30:00,28.1,21.8,30.20,SSW,200,16.6,19.6,77,0.00,CLR,OVC,0.00,WeatherDisplay:10.37,2013-01-08 10:30:00,
2013-01-08 05:31:00,28.1,21.8,30.20,SSW,208,17.5,23.0,77,0.00,CLR,OVC,0.00,WeatherDisplay:10.37,2013-01-08 10:31:00,
2013-01-08 05:34:00,28.0,21.7,30.20,SSW,205,13.9,19.6,77,0.00,CLR,OVC,0.00,WeatherDisplay:10.37,2013-01-08 10:34:00,
2013-01-08 05:35:00,28.0,21.7,30.20,SSW,206,14.2,18.4,77,0.00,CLR,OVC,0.00,WeatherDisplay:10.37,2013-01-08 10:35:00,
2013-01-08 05:36:00,27.9,21.6,30.20,SSW,207,13.7,18.4,77,0.00,CLR,OVC,0.00,WeatherDisplay:10.37,2013-01-08 10:36:00,
2013-01-08 05:39:00,27.9,21.6,30.20,SSW,198,16.7,19.0,77,0.00,CLR,OVC,0.00,WeatherDisplay:10.37,2013-01-08 10:39:00,
2013-01-08 05:40:00,27.9,21.6,30.20,SSW,197,17.3,23.0,77,0.00,CLR,OVC,0.00,WeatherDisplay:10.37,2013-01-08 10:40:00,
2013-01-08 05:41:00,27.9,21.6,30.20,SSW,192,18.6,24.2,77,0.00,CLR,OVC,0.00,WeatherDisplay:10.37,2013-01-08 10:41:00,
2013-01-08 05:44:00,28.0,21.7,30.19,South,182,15.4,20.7,77,0.00,CLR,OVC,0.00,WeatherDisplay:10.37,2013-01-08 10:44:00,
2013-01-08 05:45:00,28.0,21.7,30.20,SSW,202,14.4,19.6,77,0.00,CLR,OVC,0.00,WeatherDisplay:10.37,2013-01-08 10:45:00,
2013-01-08 05:46:00,28.0,21.7,30.19,SSW,199,14.8,19.6,77,0.00,CLR,OVC,0.00,WeatherDisplay:10.37,2013-01-08 10:46:00,
2013-01-08 05:49:00,28.0,21.7,30.19,SSW,193,14.7,18.0,77,0.00,CLR,OVC,0.00,WeatherDisplay:10.37,2013-01-08 10:49:00,
2013-01-08 05:50:00,28.1,21.8,30.19,South,191,13.9,19.6,77,0.00,CLR,OVC,0.00,WeatherDisplay:10.37,2013-01-08 10:50:00,
2013-01-08 05:51:00,28.2,21.9,30.20,SSW,199,13.6,19.6,77,0.00,CLR,OVC,0.00,WeatherDisplay:10.37,2013-01-08 10:51:00,
2013-01-08 05:54:00,28.1,21.8,30.19,South,181,15.5,21.9,77,0.00,CLR,OVC,0.00,WeatherDisplay:10.37,2013-01-08 10:54:00,
2013-01-08 05:55:00,28.1,21.8,30.19,SSW,197,14.1,19.6,77,0.00,CLR,OVC,0.00,WeatherDisplay:10.37,2013-01-08 10:55:00,
2013-01-08 05:56:00,28.2,21.9,30.19,South,190,14.7,23.0,77,0.00,CLR,OVC,0.00,WeatherDisplay:10.37,2013-01-08 10:56:00,
2013-01-08 05:57:00,28.2,21.9,30.19,SSW,196,14.5,23.0,77,0.00,CLR,OVC,0.00,WeatherDisplay:10.37,2013-01-08 10:57:00,
2013-01-08 05:59:00,28.3,22.0,30.20,SSW,197,16.0,19.6,77,0.00,CLR,OVC,0.00,WeatherDisplay:10.37,2013-01-08 10:59:00,
2013-01-08 06:00:00,28.3,21.7,30.19,South,178,13.7,19.0,76,0.00,CLR,OVC,0.00,WeatherDisplay:10.37,2013-01-08 11:00:00,
2013-01-08 06:02:00,28.3,22.0,30.19,SSW,199,15.8,25.3,77,0.00,CLR,OVC,0.00,WeatherDisplay:10.37,2013-01-08 11:02:00,
2013-01-08 06:04:00,28.4,22.1,30.20,SSW,193,13.8,20.7,77,0.00,CLR,OVC,0.00,WeatherDisplay:10.37,2013-01-08 11:04:00,
2013-01-08 06:05:00,28.4,22.1,30.20,South,180,12.8,17.3,77,0.00,CLR,OVC,0.00,WeatherDisplay:10.37,2013-01-08 11:05:00,
2013-01-08 06:07:00,28.3,22.0,30.20,SSW,193,14.4,19.6,77,0.00,CLR,OVC,0.00,WeatherDisplay:10.37,2013-01-08 11:07:00,
2013-01-08 06:10:00,28.3,22.0,30.20,SSW,198,13.1,20.7,77,0.00,CLR,OVC,0.00,WeatherDisplay:10.37,2013-01-08 11:10:00,
2013-01-08 06:12:00,28.3,22.0,30.19,SSW,198,14.9,19.6,77,0.00,CLR,OVC,0.00,WeatherDisplay:10.37,2013-01-08 11:12:00,
2013-01-08 06:15:00,28.4,22.1,30.20,SSW,208,10.5,18.4,77,0.00,CLR,OVC,0.00,WeatherDisplay:10.37,2013-01-08 11:15:00,
2013-01-08 06:16:00,28.3,22.0,30.20,SSW,204,15.4,21.0,77,0.00,CLR,OVC,0.00,WeatherDisplay:10.37,2013-01-08 11:16:00,
2013-01-08 06:17:00,28.3,22.0,30.20,SSW,198,16.8,20.7,77,0.00,CLR,OVC,0.00,WeatherDisplay:10.37,2013-01-08 11:17:00,
2013-01-08 06:18:00,28.4,22.1,30.20,South,176,15.6,20.7,77,0.00,CLR,OVC,0.00,WeatherDisplay:10.37,2013-01-08 11:18:00,
2013-01-08 06:20:00,28.4,21.8,30.20,South,191,10.4,17.3,76,0.00,CLR,OVC,0.00,WeatherDisplay:10.37,2013-01-08 11:20:00,
2013-01-08 06:21:00,28.5,22.2,30.20,South,170,16.8,23.0,77,0.00,CLR,OVC,0.00,WeatherDisplay:10.37,2013-01-08 11:21:00,
2013-01-08 06:22:00,28.5,22.2,30.20,South,185,12.9,21.9,77,0.00,CLR,OVC,0.00,WeatherDisplay:10.37,2013-01-08 11:22:00,
2013-01-08 06:23:00,28.5,22.2,30.20,South,188,12.7,17.3,77,0.00,CLR,OVC,0.00,WeatherDisplay:10.37,2013-01-08 11:23:00,
2013-01-08 06:25:00,28.4,22.1,30.20,South,191,12.3,17.3,77,0.00,CLR,OVC,0.00,WeatherDisplay:10.37,2013-01-08 11:25:00,
2013-01-08 06:26:00,28.4,22.1,30.20,SSW,201,12.8,17.3,77,0.00,CLR,OVC,0.00,WeatherDisplay:10.37,2013-01-08 11:26:00,
2013-01-08 06:27:00,28.3,21.7,30.20,SSW,192,13.1,18.4,76,0.00,CLR,OVC,0.00,WeatherDisplay:10.37,2013-01-08 11:27:00,
2013-01-08 06:28:00,28.3,21.7,30.20,South,191,14.2,19.6,76,0.00,CLR,OVC,0.00,WeatherDisplay:10.37,2013-01-08 11:28:00,
2013-01-08 06:30:00,28.4,22.1,30.20,SSW,195,15.4,19.6,77,0.00,CLR,OVC,0.00,WeatherDisplay:10.37,2013-01-08 11:30:00,
2013-01-08 06:31:00,28.5,22.2,30.20,South,182,13.6,19.6,77,0.00,CLR,OVC,0.00,WeatherDisplay:10.37,2013-01-08 11:31:00,
2013-01-08 06:32:00,28.6,22.3,30.20,SSW,196,11.1,19.6,77,0.00,CLR,OVC,0.00,WeatherDisplay:10.37,2013-01-08 11:32:00,
2013-01-08 06:33:00,28.5,22.2,30.20,South,172,9.0,13.8,77,0.00,CLR,OVC,0.00,WeatherDisplay:10.37,2013-01-08 11:33:00,
2013-01-08 06:35:00,28.5,22.2,30.20,South,189,14.1,19.6,77,0.00,CLR,OVC,0.00,WeatherDisplay:10.37,2013-01-08 11:35:00,
2013-01-08 06:36:00,28.5,22.2,30.20,South,177,12.1,19.6,77,0.00,CLR,OVC,0.00,WeatherDisplay:10.37,2013-01-08 11:36:00,
2013-01-08 06:37:00,28.5,22.2,30.20,South,187,13.2,15.0,77,0.00,CLR,OVC,0.00,WeatherDisplay:10.37,2013-01-08 11:37:00,
2013-01-08 06:38:00,28.5,22.2,30.21,South,188,13.4,19.6,77,0.00,CLR,OVC,0.00,WeatherDisplay:10.37,2013-01-08 11:38:00,
2013-01-08 06:40:00,28.6,22.3,30.20,SSW,199,12.1,13.8,77,0.00,CLR,OVC,0.00,WeatherDisplay:10.37,2013-01-08 11:40:00,
2013-01-08 06:42:00,28.6,22.3,30.20,SSW,196,10.7,20.0,77,0.00,CLR,OVC,0.00,WeatherDisplay:10.37,2013-01-08 11:42:00,
2013-01-08 06:44:00,28.7,22.4,30.21,South,184,11.7,16.1,77,0.00,CLR,OVC,0.00,WeatherDisplay:10.37,2013-01-08 11:44:00,
2013-01-08 06:45:00,28.6,22.3,30.20,SSW,192,11.5,16.1,77,0.00,CLR,OVC,0.00,WeatherDisplay:10.37,2013-01-08 11:45:00,
2013-01-08 06:47:00,28.6,22.3,30.21,SSW,210,11.8,17.0,77,0.00,CLR,OVC,0.00,WeatherDisplay:10.37,2013-01-08 11:47:00,
2013-01-08 06:49:00,28.6,22.3,30.20,SSW,194,13.4,20.7,77,0.00,CLR,OVC,0.00,WeatherDisplay:10.37,2013-01-08 11:49:00,
2013-01-08 06:50:00,28.6,22.3,30.21,South,188,10.7,15.0,77,0.00,CLR,OVC,0.00,WeatherDisplay:10.37,2013-01-08 11:50:00,
2013-01-08 06:52:00,28.7,22.4,30.21,South,187,11.7,17.3,77,0.00,CLR,OVC,0.00,WeatherDisplay:10.37,2013-01-08 11:52:00,
2013-01-08 06:54:00,28.6,22.3,30.21,SSW,198,13.2,17.3,77,0.00,CLR,OVC,0.00,WeatherDisplay:10.37,2013-01-08 11:54:00,
2013-01-08 06:55:00,28.6,22.6,30.20,SSW,192,13.2,17.3,78,0.00,CLR,OVC,0.00,WeatherDisplay:10.37,2013-01-08 11:55:00,
2013-01-08 06:57:00,28.6,22.3,30.20,South,188,11.9,13.8,77,0.00,CLR,OVC,0.00,WeatherDisplay:10.37,2013-01-08 11:57:00,
2013-01-08 06:59:00,28.6,22.3,30.21,SSW,200,10.6,12.7,77,0.00,CLR,OVC,0.00,WeatherDisplay:10.37,2013-01-08 11:59:00,
2013-01-08 07:01:00,28.3,22.3,30.20,South,189,11.7,17.3,78,0.00,CLR,OVC,0.00,WeatherDisplay:10.37,2013-01-08 12:01:00,
2013-01-08 07:02:00,28.6,22.3,30.20,SSW,194,12.4,14.0,77,0.00,CLR,OVC,0.00,WeatherDisplay:10.37,2013-01-08 12:02:00,
2013-01-08 07:03:00,28.7,22.4,30.20,South,186,12.9,15.0,77,0.00,CLR,OVC,0.00,WeatherDisplay:10.37,2013-01-08 12:03:00,
2013-01-08 07:04:00,28.6,22.3,30.20,South,185,12.5,21.9,77,0.00,CLR,OVC,0.00,WeatherDisplay:10.37,2013-01-08 12:04:00,
2013-01-08 07:06:00,28.7,22.7,30.20,SSW,193,12.4,19.6,78,0.00,CLR,OVC,0.00,WeatherDisplay:10.37,2013-01-08 12:06:00,
2013-01-08 07:07:00,28.6,22.3,30.20,SSW,196,13.4,19.6,77,0.00,CLR,OVC,0.00,WeatherDisplay:10.37,2013-01-08 12:07:00,
2013-01-08 07:08:00,28.6,22.6,30.20,SSW,194,12.3,20.7,78,0.00,CLR,OVC,0.00,WeatherDisplay:10.37,2013-01-08 12:08:00,
2013-01-08 07:09:00,28.7,22.7,30.21,SSW,201,10.8,17.3,78,0.00,CLR,OVC,0.00,WeatherDisplay:10.37,2013-01-08 12:09:00,
2013-01-08 07:11:00,28.6,22.3,30.20,South,191,11.9,18.4,77,0.00,CLR,OVC,0.00,WeatherDisplay:10.37,2013-01-08 12:11:00,
2013-01-08 07:13:00,28.6,22.3,30.21,SSW,203,13.0,19.6,77,0.00,CLR,OVC,0.00,WeatherDisplay:10.37,2013-01-08 12:13:00,
2013-01-08 07:14:00,28.6,22.6,30.21,SSW,204,14.6,20.0,78,0.00,CLR,OVC,0.00,WeatherDisplay:10.37,2013-01-08 12:14:00,
2013-01-08 07:16:00,28.6,22.6,30.21,SW,216,15.5,23.0,78,0.00,CLR,OVC,0.00,WeatherDisplay:10.37,2013-01-08 12:16:00,
2013-01-08 07:18:00,28.6,22.3,30.21,SSW,203,10.3,17.3,77,0.00,CLR,OVC,0.00,WeatherDisplay:10.37,2013-01-08 12:18:00,
2013-01-08 07:19:00,28.6,22.6,30.21,SW,214,10.1,12.7,78,0.00,CLR,OVC,0.00,WeatherDisplay:10.37,2013-01-08 12:19:00,
2013-01-08 07:22:00,28.5,22.5,30.21,SSW,199,10.2,15.0,78,0.00,CLR,OVC,0.00,WeatherDisplay:10.37,2013-01-08 12:22:00,
2013-01-08 07:23:00,28.6,22.6,30.21,SSW,200,11.6,18.4,78,0.00,CLR,OVC,0.00,WeatherDisplay:10.37,2013-01-08 12:23:00,
2013-01-08 07:24:00,28.5,22.5,30.21,SSW,198,11.7,14.0,78,0.00,CLR,OVC,0.00,WeatherDisplay:10.37,2013-01-08 12:24:00,
2013-01-08 07:27:00,28.6,22.6,30.22,SSW,199,9.5,13.8,78,0.00,CLR,OVC,0.00,WeatherDisplay:10.37,2013-01-08 12:27:00,
2013-01-08 07:28:00,28.6,22.6,30.22,SSW,203,10.3,12.7,78,0.00,CLR,OVC,0.00,WeatherDisplay:10.37,2013-01-08 12:28:00,
2013-01-08 07:29:00,28.8,22.8,30.22,SSW,195,11.5,15.0,78,0.00,CLR,OVC,0.00,WeatherDisplay:10.37,2013-01-08 12:29:00,
2013-01-08 07:32:00,28.8,22.8,30.22,SSW,211,11.6,17.3,78,0.00,CLR,OVC,0.00,WeatherDisplay:10.37,2013-01-08 12:32:00,
2013-01-08 07:33:00,28.8,22.8,30.22,South,181,11.4,17.3,78,0.00,CLR,OVC,0.00,WeatherDisplay:10.37,2013-01-08 12:33:00,
2013-01-08 07:34:00,28.8,22.8,30.22,SSW,198,12.0,17.3,78,0.00,CLR,OVC,0.00,WeatherDisplay:10.37,2013-01-08 12:34:00,
2013-01-08 07:37:00,28.9,22.9,30.22,SSW,200,7.9,12.7,78,0.00,CLR,OVC,0.00,WeatherDisplay:10.37,2013-01-08 12:37:00,
2013-01-08 07:38:00,29.0,22.7,30.22,South,176,7.2,11.5,77,0.00,CLR,OVC,0.00,WeatherDisplay:10.37,2013-01-08 12:38:00,
2013-01-08 07:39:00,29.0,22.7,30.22,SSW,202,7.2,11.5,77,0.00,CLR,OVC,0.00,WeatherDisplay:10.37,2013-01-08 12:39:00,
2013-01-08 07:42:00,28.8,22.8,30.22,SW,215,10.4,13.8,78,0.00,CLR,OVC,0.00,WeatherDisplay:10.37,2013-01-08 12:42:00,
2013-01-08 07:44:00,28.7,22.7,30.23,SSW,192,7.8,13.8,78,0.00,CLR,OVC,0.00,WeatherDisplay:10.37,2013-01-08 12:44:00,
2013-01-08 07:45:00,28.8,22.8,30.22,SSW,213,9.4,15.0,78,0.00,CLR,OVC,0.00,WeatherDisplay:10.37,2013-01-08 12:45:00,
2013-01-08 07:48:00,28.7,22.7,30.22,SSW,199,10.6,12.7,78,0.00,CLR,OVC,0.00,WeatherDisplay:10.37,2013-01-08 12:48:00,
2013-01-08 07:49:00,28.8,22.8,30.23,SSW,209,9.8,11.5,78,0.00,CLR,OVC,0.00,WeatherDisplay:10.37,2013-01-08 12:49:00,
2013-01-08 07:50:00,28.8,22.8,30.22,SSW,201,11.8,17.3,78,0.00,CLR,OVC,0.00,WeatherDisplay:10.37,2013-01-08 12:50:00,
2013-01-08 07:53:00,28.7,22.7,30.23,SSW,208,9.8,12.7,78,0.00,CLR,OVC,0.00,WeatherDisplay:10.37,2013-01-08 12:53:00,
2013-01-08 07:54:00,28.7,23.0,30.23,SSW,203,13.3,18.4,79,0.00,CLR,OVC,0.00,WeatherDisplay:10.37,2013-01-08 12:54:00,
2013-01-08 07:55:00,28.8,23.1,30.23,SSW,203,11.6,16.1,79,0.00,CLR,OVC,0.00,WeatherDisplay:10.37,2013-01-08 12:55:00,
2013-01-08 07:58:00,28.8,22.8,30.22,SSW,208,9.7,12.7,78,0.00,CLR,OVC,0.00,WeatherDisplay:10.37,2013-01-08 12:58:00,
2013-01-08 07:59:00,28.8,23.1,30.23,SSW,193,13.2,15.0,79,0.00,CLR,OVC,0.00,WeatherDisplay:10.37,2013-01-08 12:59:00,
2013-01-08 08:00:00,28.8,23.1,30.23,SSW,202,12.0,16.1,79,0.00,CLR,OVC,0.00,WeatherDisplay:10.37,2013-01-08 13:00:00,
2013-01-08 08:03:00,28.9,23.2,30.23,SSW,208,13.5,19.6,79,0.00,CLR,OVC,0.00,WeatherDisplay:10.37,2013-01-08 13:03:00,
2013-01-08 08:04:00,28.8,22.8,30.22,SSW,195,14.3,19.6,78,0.00,CLR,OVC,0.00,WeatherDisplay:10.37,2013-01-08 13:04:00,
2013-01-08 08:05:00,28.8,23.1,30.23,SSW,201,14.2,23.0,79,0.00,CLR,OVC,0.00,WeatherDisplay:10.37,2013-01-08 13:05:00,
2013-01-08 08:08:00,28.9,23.2,30.23,SSW,195,12.8,17.3,79,0.00,CLR,OVC,0.00,WeatherDisplay:10.37,2013-01-08 13:08:00,
2013-01-08 08:09:00,29.0,23.3,30.23,SSW,198,12.4,17.3,79,0.00,CLR,OVC,0.00,WeatherDisplay:10.37,2013-01-08 13:09:00,
2013-01-08 08:10:00,29.0,23.3,30.23,SSW,196,12.8,17.3,79,0.00,CLR,OVC,0.00,WeatherDisplay:10.37,2013-01-08 13:10:00,
2013-01-08 08:11:00,29.1,23.4,30.23,South,169,14.3,20.0,79,0.00,CLR,OVC,0.00,WeatherDisplay:10.37,2013-01-08 13:11:00,
2013-01-08 08:13:00,29.1,23.4,30.23,South,177,11.7,15.0,79,0.00,CLR,OVC,0.00,WeatherDisplay:10.37,2013-01-08 13:13:00,
2013-01-08 08:14:00,29.1,23.4,30.23,South,181,12.0,18.4,79,0.00,CLR,OVC,0.00,WeatherDisplay:10.37,2013-01-08 13:14:00,
2013-01-08 08:15:00,29.1,23.4,30.23,SSE,167,11.2,16.1,79,0.00,CLR,OVC,0.00,WeatherDisplay:10.37,2013-01-08 13:15:00,
2013-01-08 08:16:00,29.1,23.4,30.23,South,188,10.7,16.0,79,0.00,CLR,OVC,0.00,WeatherDisplay:10.37,2013-01-08 13:16:00,
2013-01-08 08:18:00,29.1,23.4,30.23,SSE,164,9.5,13.8,79,0.00,CLR,OVC,0.00,WeatherDisplay:10.37,2013-01-08 13:18:00,
2013-01-08 08:19:00,29.0,23.0,30.22,South,184,10.0,13.8,78,0.00,CLR,OVC,0.00,WeatherDisplay:10.37,2013-01-08 13:19:00,
2013-01-08 08:20:00,29.1,23.1,30.23,South,182,9.0,13.8,78,0.00,CLR,OVC,0.00,WeatherDisplay:10.37,2013-01-08 13:20:00,
2013-01-08 08:21:00,29.1,23.4,30.23,South,191,12.2,15.0,79,0.00,CLR,OVC,0.00,WeatherDisplay:10.37,2013-01-08 13:21:00,
2013-01-08 08:23:00,29.2,23.2,30.23,South,181,11.8,16.1,78,0.00,CLR,OVC,0.00,WeatherDisplay:10.37,2013-01-08 13:23:00,
2013-01-08 08:24:00,29.2,23.5,30.23,South,185,9.3,20.7,79,0.00,CLR,OVC,0.00,WeatherDisplay:10.37,2013-01-08 13:24:00,
2013-01-08 08:25:00,29.2,23.5,30.22,South,191,9.8,15.0,79,0.00,CLR,OVC,0.00,WeatherDisplay:10.37,2013-01-08 13:25:00,
2013-01-08 08:26:00,29.3,23.6,30.23,SSW,192,11.6,15.0,79,0.00,CLR,OVC,0.00,WeatherDisplay:10.37,2013-01-08 13:26:00,
2013-01-08 08:28:00,29.3,23.6,30.22,South,184,11.3,19.6,79,0.00,CLR,OVC,0.00,WeatherDisplay:10.37,2013-01-08 13:28:00,
2013-01-08 08:30:00,29.3,23.3,30.22,SSW,193,11.6,16.1,78,0.00,CLR,OVC,0.00,WeatherDisplay:10.37,2013-01-08 13:30:00,
2013-01-08 08:31:00,29.4,23.4,30.23,South,186,10.3,15.0,78,0.00,CLR,OVC,0.00,WeatherDisplay:10.37,2013-01-08 13:31:00,
2013-01-08 08:33:00,29.4,23.4,30.23,SSW,199,16.1,19.6,78,0.00,CLR,OVC,0.00,WeatherDisplay:10.37,2013-01-08 13:33:00,
2013-01-08 08:35:00,29.5,23.5,30.23,South,190,11.0,17.3,78,0.00,CLR,OVC,0.00,WeatherDisplay:10.37,2013-01-08 13:35:00,
2013-01-08 08:36:00,29.6,23.9,30.23,SSW,193,16.3,17.3,79,0.00,CLR,OVC,0.00,WeatherDisplay:10.37,2013-01-08 13:36:00,
2013-01-08 08:38:00,29.6,23.6,30.23,SSW,194,9.8,15.0,78,0.00,CLR,OVC,0.00,WeatherDisplay:10.37,2013-01-08 13:38:00,
2013-01-08 08:40:00,29.6,23.6,30.23,South,175,13.2,19.0,78,0.00,CLR,OVC,0.00,WeatherDisplay:10.37,2013-01-08 13:40:00,
2013-01-08 08:41:00,29.7,23.7,30.23,South,180,11.4,19.6,78,0.00,CLR,OVC,0.00,WeatherDisplay:10.37,2013-01-08 13:41:00,
2013-01-08 08:44:00,29.7,23.7,30.23,South,180,11.8,15.0,78,0.00,CLR,OVC,0.00,WeatherDisplay:10.37,2013-01-08 13:44:00,
2013-01-08 08:45:00,29.8,23.8,30.23,SSW,194,11.4,13.8,78,0.00,CLR,OVC,0.00,WeatherDisplay:10.37,2013-01-08 13:45:00,
2013-01-08 08:46:00,29.8,23.8,30.23,South,191,11.0,17.0,78,0.00,CLR,OVC,0.00,WeatherDisplay:10.37,2013-01-08 13:46:00,
2013-01-08 08:49:00,29.8,23.8,30.23,South,181,14.8,20.7,78,0.00,CLR,OVC,0.00,WeatherDisplay:10.37,2013-01-08 13:49:00,
2013-01-08 08:50:00,29.8,23.8,30.23,South,186,15.6,21.9,78,0.00,CLR,OVC,0.00,WeatherDisplay:10.37,2013-01-08 13:50:00,
2013-01-08 08:51:00,29.8,23.8,30.23,South,171,14.9,23.0,78,0.00,CLR,OVC,0.00,WeatherDisplay:10.37,2013-01-08 13:51:00,
2013-01-08 08:52:00,29.9,23.9,30.23,South,184,10.2,12.7,78,0.00,CLR,OVC,0.00,WeatherDisplay:10.37,2013-01-08 13:52:00,
2013-01-08 08:55:00,29.9,23.9,30.23,South,175,10.9,17.3,78,0.00,CLR,OVC,0.00,WeatherDisplay:10.37,2013-01-08 13:55:00,
2013-01-08 08:56:00,30.0,24.0,30.23,South,189,14.3,20.7,78,0.00,CLR,OVC,0.00,WeatherDisplay:10.37,2013-01-08 13:56:00,
2013-01-08 08:57:00,30.0,24.0,30.24,South,185,12.2,17.3,78,0.00,CLR,OVC,0.00,WeatherDisplay:10.37,2013-01-08 13:57:00,
2013-01-08 09:00:00,30.1,24.1,30.23,South,185,10.5,17.0,78,0.00,CLR,OVC,0.00,WeatherDisplay:10.37,2013-01-08 14:00:00,
2013-01-08 09:01:00,30.1,24.1,30.23,SSW,197,12.8,18.4,78,0.00,CLR,OVC,0.00,WeatherDisplay:10.37,2013-01-08 14:01:00,
2013-01-08 09:02:00,30.2,24.2,30.23,SSW,192,11.8,16.1,78,0.00,CLR,OVC,0.00,WeatherDisplay:10.37,2013-01-08 14:02:00,
2013-01-08 09:05:00,30.2,24.2,30.23,South,186,13.4,21.9,78,0.00,CLR,OVC,0.00,WeatherDisplay:10.37,2013-01-08 14:05:00,
2013-01-08 09:06:00,30.3,24.3,30.23,South,186,12.1,21.9,78,0.00,CLR,OVC,0.00,WeatherDisplay:10.37,2013-01-08 14:06:00,
2013-01-08 09:07:00,30.3,24.0,30.23,South,182,11.7,16.1,77,0.00,CLR,OVC,0.00,WeatherDisplay:10.37,2013-01-08 14:07:00,
2013-01-08 09:10:00,30.3,24.3,30.24,South,191,11.3,16.1,78,0.00,CLR,OVC,0.00,WeatherDisplay:10.37,2013-01-08 14:10:00,
2013-01-08 09:11:00,30.3,24.0,30.24,South,187,12.5,18.4,77,0.00,CLR,OVC,0.00,WeatherDisplay:10.37,2013-01-08 14:11:00,
2013-01-08 09:12:00,30.4,24.1,30.24,South,176,11.5,19.6,77,0.00,CLR,OVC,0.00,WeatherDisplay:10.37,2013-01-08 14:12:00,
2013-01-08 09:15:00,30.4,24.1,30.24,South,172,13.2,20.7,77,0.00,CLR,OVC,0.00,WeatherDisplay:10.37,2013-01-08 14:15:00,
2013-01-08 09:17:00,30.4,24.1,30.24,SSW,196,13.0,17.3,77,0.00,CLR,OVC,0.00,WeatherDisplay:10.37,2013-01-08 14:17:00,
2013-01-08 09:18:00,30.4,24.4,30.24,South,191,13.3,18.4,78,0.00,CLR,OVC,0.00,WeatherDisplay:10.37,2013-01-08 14:18:00,
2013-01-08 09:20:00,30.5,24.1,30.24,South,176,15.0,18.4,77,0.00,CLR,OVC,0.00,WeatherDisplay:10.37,2013-01-08 14:20:00,
2013-01-08 09:22:00,30.6,24.6,30.24,South,181,11.4,19.6,78,0.00,CLR,OVC,0.00,WeatherDisplay:10.37,2013-01-08 14:22:00,
2013-01-08 09:23:00,30.7,24.3,30.24,South,190,11.2,19.6,77,0.00,CLR,OVC,0.00,WeatherDisplay:10.37,2013-01-08 14:23:00,
2013-01-08 09:25:00,30.7,24.3,30.23,South,177,13.0,19.6,77,0.00,CLR,OVC,0.00,WeatherDisplay:10.37,2013-01-08 14:25:00,
2013-01-08 09:27:00,30.7,24.3,30.23,SSW,194,15.1,18.0,77,0.00,CLR,OVC,0.00,WeatherDisplay:10.37,2013-01-08 14:27:00,
2013-01-08 09:28:00,30.7,24.3,30.23,South,191,15.6,19.6,77,0.00,CLR,OVC,0.00,WeatherDisplay:10.37,2013-01-08 14:28:00,
2013-01-08 09:30:00,30.7,24.3,30.23,SSW,192,15.6,19.6,77,0.00,CLR,OVC,0.00,WeatherDisplay:10.37,2013-01-08 14:30:00,
2013-01-08 09:32:00,30.8,24.4,30.23,SSE,168,10.4,18.4,77,0.00,CLR,OVC,0.00,WeatherDisplay:10.37,2013-01-08 14:32:00,
2013-01-08 09:33:00,30.8,24.4,30.24,South,180,12.9,13.0,77,0.00,CLR,OVC,0.00,WeatherDisplay:10.37,2013-01-08 14:33:00,
2013-01-08 09:35:00,30.8,24.4,30.24,South,189,11.9,23.0,77,0.00,CLR,OVC,0.00,WeatherDisplay:10.37,2013-01-08 14:35:00,
2013-01-08 09:36:00,30.9,24.5,30.23,SSW,193,9.6,23.0,77,0.00,CLR,OVC,0.00,WeatherDisplay:10.37,2013-01-08 14:36:00,
2013-01-08 09:37:00,31.0,24.6,30.24,South,179,12.5,16.0,77,0.00,CLR,OVC,0.00,WeatherDisplay:10.37,2013-01-08 14:37:00,
2013-01-08 09:38:00,31.0,24.6,30.23,South,190,12.9,19.6,77,0.00,CLR,OVC,0.00,WeatherDisplay:10.37,2013-01-08 14:38:00,
2013-01-08 09:41:00,31.0,24.6,30.24,SSE,157,10.7,16.1,77,0.00,CLR,OVC,0.00,WeatherDisplay:10.37,2013-01-08 14:41:00,
2013-01-08 09:43:00,31.1,24.7,30.24,South,184,13.5,26.5,77,0.00,CLR,OVC,0.00,WeatherDisplay:10.37,2013-01-08 14:43:00,
2013-01-08 09:44:00,31.1,24.7,30.24,South,186,16.9,26.5,77,0.00,CLR,OVC,0.00,WeatherDisplay:10.37,2013-01-08 14:44:00,
2013-01-08 09:46:00,31.1,24.7,30.24,South,182,11.7,17.0,77,0.00,CLR,OVC,0.00,WeatherDisplay:10.37,2013-01-08 14:46:00,
2013-01-08 09:48:00,31.2,24.5,30.24,South,186,13.3,24.2,76,0.00,CLR,OVC,0.00,WeatherDisplay:10.37,2013-01-08 14:48:00,
2013-01-08 09:49:00,31.2,24.8,30.24,South,176,15.1,21.9,77,0.00,CLR,OVC,0.00,WeatherDisplay:10.37,2013-01-08 14:49:00,
2013-01-08 09:51:00,31.3,24.9,30.24,South,175,14.0,23.0,77,0.00,CLR,OVC,0.00,WeatherDisplay:10.37,2013-01-08 14:51:00,
2013-01-08 09:53:00,31.3,24.6,30.24,South,187,15.0,20.7,76,0.00,CLR,OVC,0.00,WeatherDisplay:10.37,2013-01-08 14:53:00,
2013-01-08 09:54:00,31.4,24.7,30.24,South,182,14.4,23.0,76,0.00,CLR,OVC,0.00,WeatherDisplay:10.37,2013-01-08 14:54:00,
2013-01-08 09:56:00,31.4,24.7,30.24,South,187,14.2,20.7,76,0.00,CLR,OVC,0.00,WeatherDisplay:10.37,2013-01-08 14:56:00,
2013-01-08 09:58:00,31.5,24.8,30.24,SSE,159,15.0,20.7,76,0.00,CLR,OVC,0.00,WeatherDisplay:10.37,2013-01-08 14:58:00,
2013-01-08 09:59:00,31.5,24.8,30.24,SSW,195,12.3,17.3,76,0.00,CLR,OVC,0.00,WeatherDisplay:10.37,2013-01-08 14:59:00,
2013-01-08 10:01:00,31.6,24.9,30.24,South,174,14.9,24.2,76,0.00,CLR,OVC,0.00,WeatherDisplay:10.37,2013-01-08 15:01:00,
2013-01-08 10:02:00,31.6,24.9,30.24,South,173,15.4,20.7,76,0.00,CLR,OVC,0.00,WeatherDisplay:10.37,2013-01-08 15:02:00,
2013-01-08 10:03:00,31.7,25.0,30.24,SSW,193,14.4,20.7,76,0.00,CLR,OVC,0.00,WeatherDisplay:10.37,2013-01-08 15:03:00,
2013-01-08 10:04:00,31.7,25.0,30.23,South,191,11.5,19.6,76,0.00,CLR,OVC,0.00,WeatherDisplay:10.37,2013-01-08 15:04:00,
2013-01-08 10:07:00,31.8,25.1,30.24,South,170,16.1,20.7,76,0.00,CLR,OVC,0.00,WeatherDisplay:10.37,2013-01-08 15:07:00,
2013-01-08 10:08:00,31.8,25.1,30.24,SSW,197,16.6,20.0,76,0.00,CLR,OVC,0.00,WeatherDisplay:10.37,2013-01-08 15:08:00,
2013-01-08 10:10:00,31.9,25.2,30.24,South,172,13.2,19.6,76,0.00,CLR,OVC,0.00,WeatherDisplay:10.37,2013-01-08 15:10:00,
2013-01-08 10:12:00,31.9,25.2,30.24,SSW,193,13.5,18.4,76,0.00,CLR,OVC,0.00,WeatherDisplay:10.37,2013-01-08 15:12:00,
2013-01-08 10:13:00,32.0,25.3,30.24,South,187,13.6,19.6,76,0.00,CLR,OVC,0.00,WeatherDisplay:10.37,2013-01-08 15:13:00,
2013-01-08 10:15:00,32.0,25.3,30.24,South,183,13.1,19.6,76,0.00,CLR,OVC,0.00,WeatherDisplay:10.37,2013-01-08 15:15:00,
2013-01-08 10:17:00,32.0,25.3,30.23,SSW,196,13.9,19.6,76,0.00,CLR,OVC,0.00,WeatherDisplay:10.37,2013-01-08 15:17:00,
2013-01-08 10:18:00,32.0,25.0,30.24,South,186,13.8,21.9,75,0.00,CLR,OVC,0.00,WeatherDisplay:10.37,2013-01-08 15:18:00,
2013-01-08 10:20:00,32.0,25.0,30.23,South,187,18.4,26.5,75,0.00,CLR,OVC,0.00,WeatherDisplay:10.37,2013-01-08 15:20:00,
2013-01-08 10:22:00,32.0,25.3,30.24,South,189,11.4,16.1,76,0.00,CLR,OVC,0.00,WeatherDisplay:10.37,2013-01-08 15:22:00,
2013-01-08 10:23:00,32.1,25.4,30.24,South,189,12.8,20.7,76,0.00,CLR,OVC,0.00,WeatherDisplay:10.37,2013-01-08 15:23:00,
2013-01-08 10:25:00,32.1,25.1,30.24,South,187,13.4,18.4,75,0.00,CLR,OVC,0.00,WeatherDisplay:10.37,2013-01-08 15:25:00,
2013-01-08 10:27:00,32.1,25.4,30.24,South,184,14.0,23.0,76,0.00,CLR,OVC,0.00,WeatherDisplay:10.37,2013-01-08 15:27:00,
2013-01-08 10:29:00,32.1,25.4,30.24,SSW,192,17.1,26.5,76,0.00,CLR,OVC,0.00,WeatherDisplay:10.37,2013-01-08 15:29:00,
2013-01-08 10:30:00,32.2,25.5,30.24,South,170,20.3,24.2,76,0.00,CLR,OVC,0.00,WeatherDisplay:10.37,2013-01-08 15:30:00,
2013-01-08 10:32:00,32.2,25.2,30.24,SSW,200,19.0,23.0,75,0.00,CLR,OVC,0.00,WeatherDisplay:10.37,2013-01-08 15:32:00,
2013-01-08 10:33:00,32.3,25.3,30.24,South,188,19.6,24.2,75,0.00,CLR,OVC,0.00,WeatherDisplay:10.37,2013-01-08 15:33:00,
2013-01-08 10:34:00,32.3,25.3,30.24,South,176,13.4,24.2,75,0.00,CLR,OVC,0.00,WeatherDisplay:10.37,2013-01-08 15:34:00,
2013-01-08 10:36:00,32.3,25.3,30.24,South,180,17.8,31.1,75,0.00,CLR,OVC,0.00,WeatherDisplay:10.37,2013-01-08 15:36:00,
2013-01-08 10:37:00,32.4,25.4,30.24,SSW,194,19.2,23.0,75,0.00,CLR,OVC,0.00,WeatherDisplay:10.37,2013-01-08 15:37:00,
2013-01-08 10:38:00,32.4,25.4,30.24,South,186,17.2,27.6,75,0.00,CLR,OVC,0.00,WeatherDisplay:10.37,2013-01-08 15:38:00,
2013-01-08 10:39:00,32.5,25.5,30.24,South,191,16.8,24.2,75,0.00,CLR,OVC,0.00,WeatherDisplay:10.37,2013-01-08 15:39:00,
2013-01-08 10:41:00,32.6,25.6,30.23,South,172,16.3,25.3,75,0.00,CLR,OVC,0.00,WeatherDisplay:10.37,2013-01-08 15:41:00,
2013-01-08 10:42:00,32.6,25.6,30.24,South,191,17.5,23.0,75,0.00,CLR,OVC,0.00,WeatherDisplay:10.37,2013-01-08 15:42:00,
2013-01-08 10:43:00,32.6,25.6,30.24,SSW,197,17.5,23.0,75,0.00,CLR,OVC,0.00,WeatherDisplay:10.37,2013-01-08 15:43:00,
2013-01-08 10:44:00,32.7,25.6,30.23,South,177,18.0,26.5,75,0.00,CLR,OVC,0.00,WeatherDisplay:10.37,2013-01-08 15:44:00,
2013-01-08 10:46:00,32.9,25.8,30.23,SSW,194,16.5,19.6,75,0.00,CLR,OVC,0.00,WeatherDisplay:10.37,2013-01-08 15:46:00,
2013-01-08 10:48:00,33.1,26.0,30.24,SSE,168,18.4,23.0,75,0.00,CLR,OVC,0.00,WeatherDisplay:10.37,2013-01-08 15:48:00,
2013-01-08 10:50:00,33.2,25.8,30.24,SSW,192,18.8,24.2,74,0.00,CLR,OVC,0.00,WeatherDisplay:10.37,2013-01-08 15:50:00,
2013-01-08 10:51:00,33.3,25.9,30.24,South,185,16.1,21.9,74,0.00,CLR,OVC,0.00,WeatherDisplay:10.37,2013-01-08 15:51:00,
2013-01-08 10:53:00,33.4,26.0,30.24,South,187,15.9,20.7,74,0.00,CLR,OVC,0.00,WeatherDisplay:10.37,2013-01-08 15:53:00,
2013-01-08 10:55:00,33.4,26.0,30.24,SSW,200,16.4,21.9,74,0.00,CLR,OVC,0.00,WeatherDisplay:10.37,2013-01-08 15:55:00,
2013-01-08 10:57:00,33.5,25.8,30.24,SSW,193,12.0,19.6,73,0.00,CLR,OVC,0.00,WeatherDisplay:10.37,2013-01-08 15:57:00,
2013-01-08 10:58:00,33.5,25.8,30.24,South,188,17.4,24.2,73,0.00,CLR,OVC,0.00,WeatherDisplay:10.37,2013-01-08 15:58:00,
2013-01-08 10:59:00,33.5,25.8,30.24,South,178,14.9,24.2,73,0.00,CLR,OVC,0.00,WeatherDisplay:10.37,2013-01-08 15:59:00,
2013-01-08 11:00:00,33.6,25.9,30.23,SSW,198,16.3,23.0,73,0.00,CLR,OVC,0.00,WeatherDisplay:10.37,2013-01-08 16:00:00,
2013-01-08 11:02:00,33.6,25.9,30.24,South,182,18.4,23.0,73,0.00,CLR,OVC,0.00,WeatherDisplay:10.37,2013-01-08 16:02:00,
2013-01-08 11:03:00,33.6,26.2,30.23,South,185,16.2,25.3,74,0.00,CLR,OVC,0.00,WeatherDisplay:10.37,2013-01-08 16:03:00,
2013-01-08 11:04:00,33.6,25.9,30.23,South,184,15.0,25.3,73,0.00,CLR,OVC,0.00,WeatherDisplay:10.37,2013-01-08 16:04:00,
2013-01-08 11:05:00,33.7,26.0,30.23,South,181,13.6,17.3,73,0.00,CLR,OVC,0.00,WeatherDisplay:10.37,2013-01-08 16:05:00,
2013-01-08 11:07:00,33.7,26.0,30.24,South,190,14.8,19.6,73,0.00,CLR,OVC,0.00,WeatherDisplay:10.37,2013-01-08 16:07:00,
2013-01-08 11:08:00,33.6,25.9,30.25,SSW,193,17.5,21.9,73,0.00,CLR,OVC,0.00,WeatherDisplay:10.37,2013-01-08 16:08:00,
2013-01-08 11:09:00,33.6,26.2,30.24,South,191,14.3,25.0,74,0.00,CLR,OVC,0.00,WeatherDisplay:10.37,2013-01-08 16:09:00,
2013-01-08 11:11:00,33.6,26.2,30.23,South,186,16.4,19.6,74,0.00,CLR,OVC,0.00,WeatherDisplay:10.37,2013-01-08 16:11:00,
2013-01-08 11:12:00,33.6,25.9,30.24,SSW,197,20.8,26.5,73,0.00,CLR,OVC,0.00,WeatherDisplay:10.37,2013-01-08 16:12:00,
2013-01-08 11:13:00,33.6,25.9,30.24,SSW,193,21.1,26.5,73,0.00,CLR,OVC,0.00,WeatherDisplay:10.37,2013-01-08 16:13:00,
2013-01-08 11:14:00,33.6,25.9,30.23,SSW,200,17.6,26.5,73,0.00,CLR,OVC,0.00,WeatherDisplay:10.37,2013-01-08 16:14:00,
2013-01-08 11:16:00,33.6,25.9,30.23,SSW,198,15.8,20.7,73,0.00,CLR,OVC,0.00,WeatherDisplay:10.37,2013-01-08 16:16:00,
2013-01-08 11:18:00,33.7,26.0,30.23,SSW,194,19.3,25.3,73,0.00,CLR,OVC,0.00,WeatherDisplay:10.37,2013-01-08 16:18:00,
2013-01-08 11:19:00,33.7,26.0,30.23,South,188,15.5,25.3,73,0.00,CLR,OVC,0.00,WeatherDisplay:10.37,2013-01-08 16:19:00,
2013-01-08 11:21:00,33.7,26.0,30.23,SSW,198,16.1,23.0,73,0.00,CLR,OVC,0.00,WeatherDisplay:10.37,2013-01-08 16:21:00,
2013-01-08 11:23:00,33.7,26.0,30.23,South,189,11.7,18.4,73,0.00,CLR,OVC,0.00,WeatherDisplay:10.37,2013-01-08 16:23:00,
2013-01-08 11:24:00,33.8,26.1,30.24,SSW,200,13.8,26.5,73,0.00,CLR,OVC,0.00,WeatherDisplay:10.37,2013-01-08 16:24:00,
2013-01-08 11:26:00,33.8,26.1,30.24,South,170,15.8,19.6,73,0.00,CLR,OVC,0.00,WeatherDisplay:10.37,2013-01-08 16:26:00,
2013-01-08 11:28:00,33.8,26.1,30.23,SSE,164,16.9,23.0,73,0.00,CLR,OVC,0.00,WeatherDisplay:10.37,2013-01-08 16:28:00,
2013-01-08 11:29:00,33.9,26.2,30.24,SSW,201,11.7,19.6,73,0.00,CLR,OVC,0.00,WeatherDisplay:10.37,2013-01-08 16:29:00,
2013-01-08 11:31:00,34.0,26.3,30.24,SSW,193,17.0,20.7,73,0.00,CLR,OVC,0.00,WeatherDisplay:10.37,2013-01-08 16:31:00,
2013-01-08 11:33:00,34.0,26.3,30.23,South,184,14.6,19.6,73,0.00,CLR,OVC,0.00,WeatherDisplay:10.37,2013-01-08 16:33:00,
2013-01-08 11:34:00,34.1,26.3,30.23,South,189,10.6,18.4,73,0.00,CLR,OVC,0.00,WeatherDisplay:10.37,2013-01-08 16:34:00,
2013-01-08 11:36:00,34.2,26.4,30.23,South,181,12.7,19.6,73,0.00,CLR,OVC,0.00,WeatherDisplay:10.37,2013-01-08 16:36:00,
2013-01-08 11:38:00,34.2,26.4,30.23,South,191,11.8,18.4,73,0.00,CLR,OVC,0.00,WeatherDisplay:10.37,2013-01-08 16:38:00,
2013-01-08 11:39:00,34.3,26.5,30.24,South,175,11.3,16.1,73,0.00,CLR,OVC,0.00,WeatherDisplay:10.37,2013-01-08 16:39:00,
2013-01-08 11:41:00,34.4,26.3,30.23,South,183,12.4,19.6,72,0.00,CLR,OVC,0.00,WeatherDisplay:10.37,2013-01-08 16:41:00,
2013-01-08 11:43:00,34.5,26.4,30.23,South,186,14.0,19.6,72,0.00,CLR,OVC,0.00,WeatherDisplay:10.37,2013-01-08 16:43:00,
2013-01-08 11:44:00,34.5,26.4,30.23,SSW,199,12.6,19.6,72,0.00,CLR,OVC,0.00,WeatherDisplay:10.37,2013-01-08 16:44:00,
2013-01-08 11:46:00,34.7,26.6,30.23,SSW,194,11.1,17.3,72,0.00,CLR,OVC,0.00,WeatherDisplay:10.37,2013-01-08 16:46:00,
2013-01-08 11:48:00,34.8,26.7,30.23,SSW,192,11.3,12.7,72,0.00,CLR,OVC,0.00,WeatherDisplay:10.37,2013-01-08 16:48:00,
2013-01-08 11:49:00,34.9,26.8,30.23,SSW,205,11.8,17.3,72,0.00,CLR,OVC,0.00,WeatherDisplay:10.37,2013-01-08 16:49:00,
2013-01-08 11:52:00,35.0,26.9,30.23,SSW,194,15.1,20.7,72,0.00,CLR,OVC,0.00,WeatherDisplay:10.37,2013-01-08 16:52:00,
2013-01-08 11:54:00,35.0,26.5,30.23,SSW,203,12.9,16.1,71,0.00,CLR,OVC,0.00,WeatherDisplay:10.37,2013-01-08 16:54:00,
2013-01-08 11:55:00,35.0,26.5,30.23,SSW,195,12.4,19.6,71,0.00,CLR,OVC,0.00,WeatherDisplay:10.37,2013-01-08 16:55:00,
2013-01-08 11:57:00,35.1,26.6,30.23,South,177,13.3,20.7,71,0.00,CLR,OVC,0.00,WeatherDisplay:10.37,2013-01-08 16:57:00,
2013-01-08 11:59:00,35.1,26.6,30.23,SSW,196,12.7,19.6,71,0.00,CLR,OVC,0.00,WeatherDisplay:10.37,2013-01-08 16:59:00,
2013-01-08 12:00:00,35.2,26.7,30.22,SSE,163,11.8,17.3,71,0.00,CLR,OVC,0.00,WeatherDisplay:10.37,2013-01-08 17:00:00,
2013-01-08 12:02:00,35.3,26.8,30.22,South,187,13.1,17.3,71,0.00,CLR,OVC,0.00,WeatherDisplay:10.37,2013-01-08 17:02:00,
2013-01-08 12:04:00,35.3,26.8,30.22,South,190,13.1,19.6,71,0.00,CLR,OVC,0.00,WeatherDisplay:10.37,2013-01-08 17:04:00,
2013-01-08 12:05:00,35.3,26.8,30.22,SSW,193,14.6,19.6,71,0.00,CLR,OVC,0.00,WeatherDisplay:10.37,2013-01-08 17:05:00,
2013-01-08 12:07:00,35.4,26.9,30.22,SSE,166,12.0,19.6,71,0.00,CLR,OVC,0.00,WeatherDisplay:10.37,2013-01-08 17:07:00,
2013-01-08 12:09:00,35.4,26.6,30.22,SSW,194,11.7,19.6,70,0.00,CLR,OVC,0.00,WeatherDisplay:10.37,2013-01-08 17:09:00,
2013-01-08 12:10:00,35.5,27.0,30.22,South,190,15.4,21.9,71,0.00,CLR,OVC,0.00,WeatherDisplay:10.37,2013-01-08 17:10:00,
2013-01-08 12:12:00,35.5,26.7,30.22,South,170,13.8,19.6,70,0.00,CLR,OVC,0.00,WeatherDisplay:10.37,2013-01-08 17:12:00,
2013-01-08 12:14:00,35.6,27.1,30.22,SSW,194,12.7,19.6,71,0.00,CLR,OVC,0.00,WeatherDisplay:10.37,2013-01-08 17:14:00,
2013-01-08 12:15:00,35.6,26.8,30.22,SSW,195,11.6,17.0,70,0.00,CLR,OVC,0.00,WeatherDisplay:10.37,2013-01-08 17:15:00,
2013-01-08 12:16:00,35.6,26.8,30.22,South,191,9.7,18.4,70,0.00,CLR,OVC,0.00,WeatherDisplay:10.37,2013-01-08 17:16:00,
2013-01-08 12:17:00,35.7,26.9,30.22,South,172,14.3,23.0,70,0.00,CLR,OVC,0.00,WeatherDisplay:10.37,2013-01-08 17:17:00,
2013-01-08 12:19:00,35.8,27.0,30.22,South,190,12.3,16.1,70,0.00,CLR,OVC,0.00,WeatherDisplay:10.37,2013-01-08 17:19:00,
2013-01-08 12:20:00,35.8,27.0,30.22,South,172,10.8,16.1,70,0.00,CLR,OVC,0.00,WeatherDisplay:10.37,2013-01-08 17:20:00,
2013-01-08 12:21:00,35.9,27.1,30.22,South,177,11.9,19.6,70,0.00,CLR,OVC,0.00,WeatherDisplay:10.37,2013-01-08 17:21:00,
2013-01-08 12:22:00,35.9,27.1,30.22,South,177,10.6,19.6,70,0.00,CLR,OVC,0.00,WeatherDisplay:10.37,2013-01-08 17:22:00,
2013-01-08 12:24:00,36.0,27.2,30.22,South,174,13.0,19.6,70,0.00,CLR,OVC,0.00,WeatherDisplay:10.37,2013-01-08 17:24:00,
2013-01-08 12:25:00,36.1,26.9,30.22,South,178,14.4,23.0,69,0.00,CLR,OVC,0.00,WeatherDisplay:10.37,2013-01-08 17:25:00,
2013-01-08 12:27:00,36.1,26.9,30.22,South,187,13.1,18.4,69,0.00,CLR,OVC,0.00,WeatherDisplay:10.37,2013-01-08 17:27:00,
2013-01-08 12:29:00,36.0,26.8,30.21,SSW,201,13.8,16.1,69,0.00,CLR,OVC,0.00,WeatherDisplay:10.37,2013-01-08 17:29:00,
2013-01-08 12:30:00,36.3,27.1,30.22,South,187,13.7,18.4,69,0.00,CLR,OVC,0.00,WeatherDisplay:10.37,2013-01-08 17:30:00,
2013-01-08 12:32:00,36.4,27.2,30.21,SSW,193,13.0,21.9,69,0.00,CLR,OVC,0.00,WeatherDisplay:10.37,2013-01-08 17:32:00,
2013-01-08 12:34:00,36.5,27.3,30.21,South,184,13.1,19.6,69,0.00,CLR,OVC,0.00,WeatherDisplay:10.37,2013-01-08 17:34:00,
2013-01-08 12:35:00,36.5,27.3,30.21,South,185,13.4,19.6,69,0.00,CLR,OVC,0.00,WeatherDisplay:10.37,2013-01-08 17:35:00,
2013-01-08 12:37:00,36.6,27.4,30.21,SSW,195,11.2,17.3,69,0.00,CLR,OVC,0.00,WeatherDisplay:10.37,2013-01-08 17:37:00,
2013-01-08 12:39:00,36.7,27.5,30.21,SSW,196,12.1,15.0,69,0.00,CLR,OVC,0.00,WeatherDisplay:10.37,2013-01-08 17:39:00,
2013-01-08 12:40:00,36.7,27.1,30.22,South,180,13.8,19.6,68,0.00,CLR,OVC,0.00,WeatherDisplay:10.37,2013-01-08 17:40:00,
2013-01-08 12:42:00,36.8,27.2,30.22,South,187,12.2,20.7,68,0.00,CLR,OVC,0.00,WeatherDisplay:10.37,2013-01-08 17:42:00,
2013-01-08 12:43:00,36.8,27.2,30.22,South,187,14.1,18.4,68,0.00,CLR,OVC,0.00,WeatherDisplay:10.37,2013-01-08 17:43:00,
2013-01-08 12:44:00,36.8,27.2,30.22,South,190,13.7,19.6,68,0.00,CLR,OVC,0.00,WeatherDisplay:10.37,2013-01-08 17:44:00,
2013-01-08 12:45:00,36.9,27.3,30.21,South,181,13.4,19.6,68,0.00,CLR,OVC,0.00,WeatherDisplay:10.37,2013-01-08 17:45:00,
2013-01-08 12:48:00,36.9,27.3,30.22,South,178,11.2,18.4,68,0.00,CLR,OVC,0.00,WeatherDisplay:10.37,2013-01-08 17:48:00,
2013-01-08 12:49:00,37.0,27.4,30.22,South,188,11.3,15.0,68,0.00,CLR,OVC,0.00,WeatherDisplay:10.37,2013-01-08 17:49:00,
2013-01-08 12:50:00,37.0,27.4,30.21,South,189,12.4,17.3,68,0.00,CLR,OVC,0.00,WeatherDisplay:10.37,2013-01-08 17:50:00,
2013-01-08 12:53:00,37.1,27.2,30.22,South,179,12.6,17.3,67,0.00,CLR,OVC,0.00,WeatherDisplay:10.37,2013-01-08 17:53:00,
2013-01-08 12:54:00,37.1,27.2,30.22,South,187,10.5,15.0,67,0.00,CLR,OVC,0.00,WeatherDisplay:10.37,2013-01-08 17:54:00,
2013-01-08 12:55:00,37.2,27.2,30.22,South,186,10.7,14.0,67,0.00,CLR,OVC,0.00,WeatherDisplay:10.37,2013-01-08 17:55:00,
2013-01-08 12:58:00,37.3,27.3,30.22,SSW,196,11.3,15.0,67,0.00,CLR,OVC,0.00,WeatherDisplay:10.37,2013-01-08 17:58:00,
2013-01-08 12:59:00,37.2,27.2,30.22,SSW,193,13.7,18.4,67,0.00,CLR,OVC,0.00,WeatherDisplay:10.37,2013-01-08 17:59:00,
2013-01-08 13:00:00,37.3,27.3,30.22,South,181,12.7,19.6,67,0.00,CLR,OVC,0.00,WeatherDisplay:10.37,2013-01-08 18:00:00,
2013-01-08 13:03:00,37.3,27.3,30.22,South,186,10.5,12.7,67,0.00,CLR,OVC,0.00,WeatherDisplay:10.37,2013-01-08 18:03:00,
2013-01-08 13:04:00,37.3,27.3,30.22,South,182,10.9,13.8,67,0.00,CLR,OVC,0.00,WeatherDisplay:10.37,2013-01-08 18:04:00,
2013-01-08 13:06:00,37.3,27.3,30.22,SSW,194,10.9,15.0,67,0.00,CLR,OVC,0.00,WeatherDisplay:10.37,2013-01-08 18:06:00,
2013-01-08 13:08:00,37.4,27.4,30.22,South,189,14.5,19.6,67,0.00,CLR,OVC,0.00,WeatherDisplay:10.37,2013-01-08 18:08:00,
2013-01-08 13:09:00,37.5,27.5,30.22,SSW,192,13.2,18.4,67,0.00,CLR,OVC,0.00,WeatherDisplay:10.37,2013-01-08 18:09:00,
2013-01-08 13:11:00,37.5,27.5,30.22,South,180,12.2,17.3,67,0.00,CLR,OVC,0.00,WeatherDisplay:10.37,2013-01-08 18:11:00,
2013-01-08 13:13:00,37.6,27.3,30.22,South,185,9.6,16.1,66,0.00,CLR,OVC,0.00,WeatherDisplay:10.37,2013-01-08 18:13:00,
2013-01-08 13:14:00,37.6,27.3,30.22,South,181,12.7,19.0,66,0.00,CLR,OVC,0.00,WeatherDisplay:10.37,2013-01-08 18:14:00,
2013-01-08 13:16:00,37.7,27.4,30.22,South,190,13.6,19.6,66,0.00,CLR,OVC,0.00,WeatherDisplay:10.37,2013-01-08 18:16:00,
2013-01-08 13:18:00,37.7,27.4,30.22,SSW,195,10.7,17.3,66,0.00,CLR,OVC,0.00,WeatherDisplay:10.37,2013-01-08 18:18:00,
2013-01-08 13:19:00,37.7,27.4,30.22,SSW,205,10.9,13.8,66,0.00,CLR,OVC,0.00,WeatherDisplay:10.37,2013-01-08 18:19:00,
2013-01-08 13:21:00,37.8,27.5,30.22,South,180,11.0,15.0,66,0.00,CLR,OVC,0.00,WeatherDisplay:10.37,2013-01-08 18:21:00,
2013-01-08 13:23:00,37.8,27.5,30.22,South,170,9.0,12.7,66,0.00,CLR,OVC,0.00,WeatherDisplay:10.37,2013-01-08 18:23:00,
2013-01-08 13:24:00,37.9,27.5,30.22,South,184,9.0,12.7,66,0.00,CLR,OVC,0.00,WeatherDisplay:10.37,2013-01-08 18:24:00,
2013-01-08 13:26:00,37.9,27.5,30.22,SSW,193,11.3,19.6,66,0.00,CLR,OVC,0.00,WeatherDisplay:10.37,2013-01-08 18:26:00,
2013-01-08 13:28:00,37.7,27.4,30.22,South,188,13.5,16.1,66,0.00,CLR,OVC,0.00,WeatherDisplay:10.37,2013-01-08 18:28:00,
2013-01-08 13:29:00,37.7,27.4,30.22,South,184,13.2,16.1,66,0.00,CLR,OVC,0.00,WeatherDisplay:10.37,2013-01-08 18:29:00,
2013-01-08 13:31:00,37.9,27.5,30.22,South,176,8.6,15.0,66,0.00,CLR,OVC,0.00,WeatherDisplay:10.37,2013-01-08 18:31:00,
2013-01-08 13:34:00,38.0,27.6,30.22,SSW,192,8.5,14.0,66,0.00,CLR,OVC,0.00,WeatherDisplay:10.37,2013-01-08 18:34:00,
2013-01-08 13:37:00,38.0,27.3,30.22,South,187,10.9,15.0,65,0.00,CLR,OVC,0.00,WeatherDisplay:10.37,2013-01-08 18:37:00,
2013-01-08 13:39:00,38.1,27.4,30.22,South,177,9.0,17.0,65,0.00,CLR,OVC,0.00,WeatherDisplay:10.37,2013-01-08 18:39:00,
2013-01-08 13:42:00,38.2,27.5,30.23,SSW,193,8.3,14.0,65,0.00,CLR,OVC,0.00,WeatherDisplay:10.37,2013-01-08 18:42:00,
2013-01-08 13:44:00,38.2,27.5,30.23,South,178,12.8,19.6,65,0.00,CLR,OVC,0.00,WeatherDisplay:10.37,2013-01-08 18:44:00,
2013-01-08 13:45:00,38.3,27.6,30.23,SSE,159,8.4,12.7,65,0.00,CLR,OVC,0.00,WeatherDisplay:10.37,2013-01-08 18:45:00,
2013-01-08 13:47:00,38.4,27.7,30.23,SSE,165,12.0,17.3,65,0.00,CLR,OVC,0.00,WeatherDisplay:10.37,2013-01-08 18:47:00,
2013-01-08 13:49:00,38.5,27.7,30.23,South,187,11.0,15.0,65,0.00,CLR,OVC,0.00,WeatherDisplay:10.37,2013-01-08 18:49:00,
2013-01-08 13:50:00,38.5,27.7,30.23,South,187,9.7,17.0,65,0.00,CLR,OVC,0.00,WeatherDisplay:10.37,2013-01-08 18:50:00,
2013-01-08 13:52:00,38.6,27.5,30.23,South,176,10.0,13.8,64,0.00,CLR,OVC,0.00,WeatherDisplay:10.37,2013-01-08 18:52:00,
2013-01-08 13:54:00,38.7,27.6,30.23,SSW,199,12.2,15.0,64,0.00,CLR,OVC,0.00,WeatherDisplay:10.37,2013-01-08 18:54:00,
2013-01-08 13:55:00,38.7,27.6,30.23,SSW,211,12.3,17.3,64,0.00,CLR,OVC,0.00,WeatherDisplay:10.37,2013-01-08 18:55:00,
2013-01-08 13:58:00,38.8,27.7,30.23,SSW,202,10.6,17.3,64,0.00,CLR,OVC,0.00,WeatherDisplay:10.37,2013-01-08 18:58:00,
2013-01-08 13:59:00,38.8,27.7,30.23,SSW,202,11.1,12.7,64,0.00,CLR,OVC,0.00,WeatherDisplay:10.37,2013-01-08 18:59:00,
2013-01-08 14:00:00,38.8,27.7,30.23,SSW,193,12.2,16.1,64,0.00,CLR,OVC,0.00,WeatherDisplay:10.37,2013-01-08 19:00:00,
2013-01-08 14:03:00,38.9,27.8,30.23,SSW,192,10.4,14.0,64,0.00,CLR,OVC,0.00,WeatherDisplay:10.37,2013-01-08 19:03:00,
2013-01-08 14:04:00,39.0,27.8,30.23,South,182,10.3,15.0,64,0.00,CLR,OVC,0.00,WeatherDisplay:10.37,2013-01-08 19:04:00,
2013-01-08 14:05:00,39.0,27.8,30.23,SSW,201,10.9,12.7,64,0.00,CLR,OVC,0.00,WeatherDisplay:10.37,2013-01-08 19:05:00,
2013-01-08 14:08:00,39.3,27.7,30.23,SSW,192,10.0,17.3,63,0.00,CLR,OVC,0.00,WeatherDisplay:10.37,2013-01-08 19:08:00,
2013-01-08 14:09:00,39.3,27.7,30.23,SSW,201,10.9,15.0,63,0.00,CLR,OVC,0.00,WeatherDisplay:10.37,2013-01-08 19:09:00,
2013-01-08 14:10:00,39.3,27.7,30.24,SSW,200,9.2,15.0,63,0.00,CLR,OVC,0.00,WeatherDisplay:10.37,2013-01-08 19:10:00,
2013-01-08 14:11:00,39.3,27.7,30.24,SSW,195,9.5,12.7,63,0.00,CLR,OVC,0.00,WeatherDisplay:10.37,2013-01-08 19:11:00,
2013-01-08 14:13:00,39.3,27.7,30.24,SSW,192,9.6,12.7,63,0.00,CLR,OVC,0.00,WeatherDisplay:10.37,2013-01-08 19:13:00,
2013-01-08 14:14:00,39.4,27.8,30.24,SSW,206,10.5,12.7,63,0.00,CLR,OVC,0.00,WeatherDisplay:10.37,2013-01-08 19:14:00,
2013-01-08 14:15:00,39.3,27.7,30.24,South,187,10.3,15.0,63,0.00,CLR,OVC,0.00,WeatherDisplay:10.37,2013-01-08 19:15:00,
2013-01-08 14:16:00,39.3,27.7,30.24,SSW,206,11.3,15.0,63,0.00,CLR,OVC,0.00,WeatherDisplay:10.37,2013-01-08 19:16:00,
2013-01-08 14:18:00,39.4,27.8,30.24,SSW,193,10.2,15.0,63,0.00,CLR,OVC,0.00,WeatherDisplay:10.37,2013-01-08 19:18:00,
2013-01-08 14:19:00,39.4,27.8,30.24,South,189,9.1,13.8,63,0.00,CLR,OVC,0.00,WeatherDisplay:10.37,2013-01-08 19:19:00,
2013-01-08 14:20:00,39.4,27.8,30.24,South,183,9.1,11.5,63,0.00,CLR,OVC,0.00,WeatherDisplay:10.37,2013-01-08 19:20:00,
2013-01-08 14:21:00,39.4,27.8,30.24,SSW,192,9.2,11.5,63,0.00,CLR,OVC,0.00,WeatherDisplay:10.37,2013-01-08 19:21:00,
2013-01-08 14:23:00,39.4,27.8,30.24,SSW,198,12.5,16.1,63,0.00,CLR,OVC,0.00,WeatherDisplay:10.37,2013-01-08 19:23:00,
2013-01-08 14:25:00,39.4,27.8,30.24,SSW,192,12.2,16.1,63,0.00,CLR,OVC,0.00,WeatherDisplay:10.37,2013-01-08 19:25:00,
2013-01-08 14:26:00,39.4,27.8,30.24,SSW,202,8.6,10.4,63,0.00,CLR,OVC,0.00,WeatherDisplay:10.37,2013-01-08 19:26:00,
2013-01-08 14:29:00,39.5,27.9,30.25,SSW,200,10.5,12.7,63,0.00,CLR,OVC,0.00,WeatherDisplay:10.37,2013-01-08 19:29:00,
2013-01-08 14:30:00,39.6,28.0,30.25,South,184,9.6,12.7,63,0.00,CLR,OVC,0.00,WeatherDisplay:10.37,2013-01-08 19:30:00,
2013-01-08 14:31:00,39.6,28.0,30.24,SSW,194,7.5,11.5,63,0.00,CLR,OVC,0.00,WeatherDisplay:10.37,2013-01-08 19:31:00,
2013-01-08 14:34:00,39.7,28.1,30.25,SSW,193,12.7,17.3,63,0.00,CLR,OVC,0.00,WeatherDisplay:10.37,2013-01-08 19:34:00,
2013-01-08 14:35:00,39.8,28.2,30.25,SSW,196,9.8,16.1,63,0.00,CLR,OVC,0.00,WeatherDisplay:10.37,2013-01-08 19:35:00,
2013-01-08 14:36:00,39.8,28.2,30.25,South,190,8.7,11.5,63,0.00,CLR,OVC,0.00,WeatherDisplay:10.37,2013-01-08 19:36:00,
2013-01-08 14:39:00,39.9,28.3,30.25,SSW,195,10.7,12.7,63,0.00,CLR,OVC,0.00,WeatherDisplay:10.37,2013-01-08 19:39:00,
2013-01-08 14:40:00,39.9,27.9,30.25,SSW,209,10.0,13.8,62,0.00,CLR,OVC,0.00,WeatherDisplay:10.37,2013-01-08 19:40:00,
2013-01-08 14:41:00,39.9,27.9,30.25,SSW,201,9.0,12.7,62,0.00,CLR,OVC,0.00,WeatherDisplay:10.37,2013-01-08 19:41:00,
2013-01-08 14:44:00,39.9,27.9,30.25,SSW,196,11.3,15.0,62,0.00,CLR,OVC,0.00,WeatherDisplay:10.37,2013-01-08 19:44:00,
2013-01-08 14:46:00,40.0,28.0,30.25,SSW,192,8.1,11.5,62,0.00,CLR,OVC,0.00,WeatherDisplay:10.37,2013-01-08 19:46:00,
2013-01-08 14:47:00,40.0,28.0,30.25,SSW,199,10.5,13.8,62,0.00,CLR,OVC,0.00,WeatherDisplay:10.37,2013-01-08 19:47:00,
2013-01-08 14:49:00,40.0,28.0,30.25,SSW,205,9.9,12.7,62,0.00,CLR,OVC,0.00,WeatherDisplay:10.37,2013-01-08 19:49:00,
2013-01-08 14:51:00,40.0,28.0,30.26,South,187,9.2,11.5,62,0.00,CLR,OVC,0.00,WeatherDisplay:10.37,2013-01-08 19:51:00,
2013-01-08 14:52:00,40.0,28.0,30.26,South,180,8.2,11.5,62,0.00,CLR,OVC,0.00,WeatherDisplay:10.37,2013-01-08 19:52:00,
2013-01-08 14:54:00,40.0,28.0,30.26,South,186,9.7,12.7,62,0.00,CLR,OVC,0.00,WeatherDisplay:10.37,2013-01-08 19:54:00,
2013-01-08 14:56:00,40.0,28.0,30.26,SE,142,6.6,10.4,62,0.00,CLR,OVC,0.00,WeatherDisplay:10.37,2013-01-08 19:56:00,
2013-01-08 14:57:00,40.1,28.1,30.26,SSE,161,6.9,10.4,62,0.00,CLR,OVC,0.00,WeatherDisplay:10.37,2013-01-08 19:57:00,
2013-01-08 14:59:00,40.2,28.2,30.26,South,173,7.7,11.5,62,0.00,CLR,OVC,0.00,WeatherDisplay:10.37,2013-01-08 19:59:00,
2013-01-08 15:01:00,40.2,28.2,30.26,South,169,6.6,9.2,62,0.00,CLR,OVC,0.00,WeatherDisplay:10.37,2013-01-08 20:01:00,
2013-01-08 15:02:00,40.2,28.2,30.26,South,170,5.7,8.1,62,0.00,CLR,OVC,0.00,WeatherDisplay:10.37,2013-01-08 20:02:00,
2013-01-08 15:04:00,40.3,27.9,30.26,SSW,199,7.2,9.2,61,0.00,CLR,OVC,0.00,WeatherDisplay:10.37,2013-01-08 20:04:00,
2013-01-08 15:06:00,40.4,28.0,30.26,SSW,193,5.5,9.2,61,0.00,CLR,OVC,0.00,WeatherDisplay:10.37,2013-01-08 20:06:00,
2013-01-08 15:07:00,40.4,28.0,30.26,SSW,194,5.4,8.1,61,0.00,CLR,OVC,0.00,WeatherDisplay:10.37,2013-01-08 20:07:00,
2013-01-08 15:09:00,40.4,28.0,30.26,SSW,192,7.8,10.4,61,0.00,CLR,OVC,0.00,WeatherDisplay:10.37,2013-01-08 20:09:00,
2013-01-08 15:11:00,40.4,28.0,30.26,South,190,6.7,9.2,61,0.00,CLR,OVC,0.00,WeatherDisplay:10.37,2013-01-08 20:11:00,
2013-01-08 15:12:00,40.4,28.0,30.27,SSE,165,7.3,9.2,61,0.00,CLR,OVC,0.00,WeatherDisplay:10.37,2013-01-08 20:12:00,
2013-01-08 15:14:00,40.3,27.9,30.27,SSW,206,7.0,9.2,61,0.00,CLR,OVC,0.00,WeatherDisplay:10.37,2013-01-08 20:14:00,
2013-01-08 15:17:00,40.3,27.9,30.27,South,191,5.7,6.9,61,0.00,CLR,OVC,0.00,WeatherDisplay:10.37,2013-01-08 20:17:00,
2013-01-08 15:18:00,40.3,27.9,30.26,SSW,196,7.8,11.5,61,0.00,CLR,OVC,0.00,WeatherDisplay:10.37,2013-01-08 20:18:00,
2013-01-08 15:19:00,40.3,27.9,30.27,SSW,198,6.2,11.5,61,0.00,CLR,OVC,0.00,WeatherDisplay:10.37,2013-01-08 20:19:00,
2013-01-08 15:22:00,40.2,28.2,30.26,SSW,200,8.1,12.0,62,0.00,CLR,OVC,0.00,WeatherDisplay:10.37,2013-01-08 20:22:00,
2013-01-08 15:23:00,40.3,28.3,30.27,SSW,197,8.7,11.5,62,0.00,CLR,OVC,0.00,WeatherDisplay:10.37,2013-01-08 20:23:00,
2013-01-08 15:24:00,40.2,28.2,30.26,SSW,193,6.8,9.2,62,0.00,CLR,OVC,0.00,WeatherDisplay:10.37,2013-01-08 20:24:00,
2013-01-08 15:27:00,40.2,28.2,30.27,SSW,195,6.0,9.2,62,0.00,CLR,OVC,0.00,WeatherDisplay:10.37,2013-01-08 20:27:00,
2013-01-08 15:28:00,40.2,28.2,30.27,SSW,193,5.6,8.1,62,0.00,CLR,OVC,0.00,WeatherDisplay:10.37,2013-01-08 20:28:00,
2013-01-08 15:29:00,40.1,28.1,30.27,SSW,193,5.1,6.9,62,0.00,CLR,OVC,0.00,WeatherDisplay:10.37,2013-01-08 20:29:00,
2013-01-08 15:32:00,40.0,28.0,30.27,SW,214,6.7,9.2,62,0.00,CLR,OVC,0.00,WeatherDisplay:10.37,2013-01-08 20:32:00,
2013-01-08 15:33:00,40.0,28.0,30.27,SSW,209,5.8,6.9,62,0.00,CLR,OVC,0.00,WeatherDisplay:10.37,2013-01-08 20:33:00,
2013-01-08 15:34:00,39.9,27.9,30.27,SSW,210,4.3,6.0,62,0.00,CLR,OVC,0.00,WeatherDisplay:10.37,2013-01-08 20:34:00,
2013-01-08 15:37:00,39.8,27.8,30.28,SSW,209,3.9,6.9,62,0.00,CLR,OVC,0.00,WeatherDisplay:10.37,2013-01-08 20:37:00,
2013-01-08 15:38:00,39.8,28.2,30.27,SSW,209,3.6,5.0,63,0.00,CLR,OVC,0.00,WeatherDisplay:10.37,2013-01-08 20:38:00,
2013-01-08 15:39:00,39.7,28.1,30.27,SSW,209,1.9,5.8,63,0.00,CLR,OVC,0.00,WeatherDisplay:10.37,2013-01-08 20:39:00,
2013-01-08 15:42:00,39.6,28.0,30.27,SSW,209,1.6,2.3,63,0.00,CLR,OVC,0.00,WeatherDisplay:10.37,2013-01-08 20:42:00,
2013-01-08 15:43:00,39.5,27.9,30.27,SSW,209,1.8,2.3,63,0.00,CLR,OVC,0.00,WeatherDisplay:10.37,2013-01-08 20:43:00,
2013-01-08 15:44:00,39.5,27.9,30.27,SSW,209,2.2,3.0,63,0.00,CLR,OVC,0.00,WeatherDisplay:10.37,2013-01-08 20:44:00,
2013-01-08 15:47:00,39.4,27.8,30.27,SSW,209,3.1,4.0,63,0.00,CLR,OVC,0.00,WeatherDisplay:10.37,2013-01-08 20:47:00,
2013-01-08 15:48:00,39.2,27.7,30.27,SSW,209,4.6,5.0,63,0.00,CLR,OVC,0.00,WeatherDisplay:10.37,2013-01-08 20:48:00,
2013-01-08 15:49:00,39.1,27.6,30.28,SSW,209,5.0,5.8,63,0.00,CLR,OVC,0.00,WeatherDisplay:10.37,2013-01-08 20:49:00,
2013-01-08 15:52:00,38.7,27.2,30.28,SSW,209,4.7,5.8,63,0.00,CLR,OVC,0.00,WeatherDisplay:10.37,2013-01-08 20:52:00,
2013-01-08 15:53:00,38.6,27.1,30.28,SSW,209,4.5,5.8,63,0.00,CLR,OVC,0.00,WeatherDisplay:10.37,2013-01-08 20:53:00,
2013-01-08 15:55:00,38.5,27.4,30.28,SSW,209,3.9,4.6,64,0.00,CLR,OVC,0.00,WeatherDisplay:10.37,2013-01-08 20:55:00,
2013-01-08 15:58:00,38.2,27.1,30.28,SSW,209,3.2,3.5,64,0.00,CLR,OVC,0.00,WeatherDisplay:10.37,2013-01-08 20:58:00,
2013-01-08 15:59:00,38.1,27.4,30.28,SSW,209,2.4,3.5,65,0.00,CLR,OVC,0.00,WeatherDisplay:10.37,2013-01-08 20:59:00,
2013-01-08 16:00:00,38.0,27.3,30.28,SSW,209,1.9,3.5,65,0.00,CLR,OVC,0.00,WeatherDisplay:10.37,2013-01-08 21:00:00,
2013-01-08 16:03:00,37.9,27.2,30.28,SSW,209,1.3,2.3,65,0.00,CLR,OVC,0.00,WeatherDisplay:10.37,2013-01-08 21:03:00,
2013-01-08 16:04:00,37.9,27.2,30.27,SSW,209,1.1,2.3,65,0.00,CLR,OVC,0.00,WeatherDisplay:10.37,2013-01-08 21:04:00,
2013-01-08 16:05:00,37.9,27.2,30.28,SSW,209,1.1,2.3,65,0.00,CLR,OVC,0.00,WeatherDisplay:10.37,2013-01-08 21:05:00,
2013-01-08 16:08:00,37.9,27.2,30.28,SSW,209,0.2,1.2,65,0.00,CLR,OVC,0.00,WeatherDisplay:10.37,2013-01-08 21:08:00,
2013-01-08 16:09:00,37.9,27.5,30.28,SSW,209,0.1,1.2,66,0.00,CLR,OVC,0.00,WeatherDisplay:10.37,2013-01-08 21:09:00,
2013-01-08 16:10:00,37.9,27.2,30.28,SSW,209,1.2,2.3,65,0.00,CLR,OVC,0.00,WeatherDisplay:10.37,2013-01-08 21:10:00,
2013-01-08 16:13:00,37.8,27.5,30.28,SSW,209,0.6,1.2,66,0.00,CLR,OVC,0.00,WeatherDisplay:10.37,2013-01-08 21:13:00,
2013-01-08 16:14:00,37.7,27.4,30.29,SSW,209,0.8,1.2,66,0.00,CLR,OVC,0.00,WeatherDisplay:10.37,2013-01-08 21:14:00,
2013-01-08 16:15:00,37.7,27.0,30.28,SSW,209,0.5,1.2,65,0.00,CLR,OVC,0.00,WeatherDisplay:10.37,2013-01-08 21:15:00,
2013-01-08 16:18:00,37.5,27.2,30.28,SSW,209,2.6,3.5,66,0.00,CLR,OVC,0.00,WeatherDisplay:10.37,2013-01-08 21:18:00,
2013-01-08 16:19:00,37.5,27.2,30.28,SSW,209,3.0,3.5,66,0.00,CLR,OVC,0.00,WeatherDisplay:10.37,2013-01-08 21:19:00,
2013-01-08 16:20:00,37.4,27.1,30.28,SSW,209,3.4,3.5,66,0.00,CLR,OVC,0.00,WeatherDisplay:10.37,2013-01-08 21:20:00,
2013-01-08 16:24:00,37.1,26.8,30.28,SSW,209,3.2,3.5,66,0.00,CLR,OVC,0.00,WeatherDisplay:10.37,2013-01-08 21:24:00,
2013-01-08 16:25:00,37.0,26.7,30.28,SSW,209,3.4,4.0,66,0.00,CLR,OVC,0.00,WeatherDisplay:10.37,2013-01-08 21:25:00,
2013-01-08 16:29:00,36.6,26.7,30.28,SSW,209,3.4,4.0,67,0.00,CLR,OVC,0.00,WeatherDisplay:10.37,2013-01-08 21:29:00,
2013-01-08 16:30:00,36.4,26.5,30.28,SSW,209,3.1,3.5,67,0.00,CLR,OVC,0.00,WeatherDisplay:10.37,2013-01-08 21:30:00,
2013-01-08 16:34:00,36.0,26.5,30.29,SSW,209,2.5,3.5,68,0.00,CLR,OVC,0.00,WeatherDisplay:10.37,2013-01-08 21:34:00,
2013-01-08 16:35:00,35.9,26.0,30.29,SSW,209,2.6,3.5,67,0.00,CLR,OVC,0.00,WeatherDisplay:10.37,2013-01-08 21:35:00,
2013-01-08 16:39:00,35.4,25.9,30.29,SSW,209,0.8,3.5,68,0.00,CLR,OVC,0.00,WeatherDisplay:10.37,2013-01-08 21:39:00,
2013-01-08 16:40:00,35.4,25.9,30.29,SSW,209,0.5,2.3,68,0.00,CLR,OVC,0.00,WeatherDisplay:10.37,2013-01-08 21:40:00,
2013-01-08 16:44:00,34.9,25.8,30.28,SSW,209,2.1,3.0,69,0.00,CLR,OVC,0.00,WeatherDisplay:10.37,2013-01-08 21:44:00,
2013-01-08 16:45:00,34.8,25.7,30.29,SSW,209,2.3,3.5,69,0.00,CLR,OVC,0.00,WeatherDisplay:10.37,2013-01-08 21:45:00,
2013-01-08 16:49:00,34.3,25.2,30.29,SSW,209,3.5,3.5,69,0.00,CLR,OVC,0.00,WeatherDisplay:10.37,2013-01-08 21:49:00,
2013-01-08 16:50:00,34.2,25.1,30.29,SSW,209,3.4,3.5,69,0.00,CLR,OVC,0.00,WeatherDisplay:10.37,2013-01-08 21:50:00,
2013-01-08 16:51:00,34.1,25.0,30.29,SSW,209,3.3,3.5,69,0.00,CLR,OVC,0.00,WeatherDisplay:10.37,2013-01-08 21:51:00,
2013-01-08 16:54:00,33.8,25.0,30.29,SSW,209,3.5,4.0,70,0.00,CLR,OVC,0.00,WeatherDisplay:10.37,2013-01-08 21:54:00,
2013-01-08 16:55:00,33.8,25.4,30.29,SSW,209,3.2,3.5,71,0.00,CLR,OVC,0.00,WeatherDisplay:10.37,2013-01-08 21:55:00,
2013-01-08 16:56:00,33.7,25.3,30.29,SSW,209,3.2,3.5,71,0.00,CLR,OVC,0.00,WeatherDisplay:10.37,2013-01-08 21:56:00,
2013-01-08 16:59:00,33.5,25.1,30.28,SSW,209,4.1,4.6,71,0.00,CLR,OVC,0.00,WeatherDisplay:10.37,2013-01-08 21:59:00,
2013-01-08 17:00:00,33.4,25.0,30.29,SSW,209,3.8,4.6,71,0.00,CLR,OVC,0.00,WeatherDisplay:10.37,2013-01-08 22:00:00,
2013-01-08 17:01:00,33.4,25.0,30.29,SSW,209,3.7,4.0,71,0.00,CLR,OVC,0.00,WeatherDisplay:10.37,2013-01-08 22:01:00,
2013-01-08 17:05:00,33.2,24.8,30.29,SSW,209,3.0,3.5,71,0.00,CLR,OVC,0.00,WeatherDisplay:10.37,2013-01-08 22:05:00,
2013-01-08 17:06:00,33.2,25.1,30.29,SSW,209,2.8,3.5,72,0.00,CLR,OVC,0.00,WeatherDisplay:10.37,2013-01-08 22:06:00,
2013-01-08 17:10:00,33.1,24.7,30.29,SSW,209,2.1,3.5,71,0.00,CLR,OVC,0.00,WeatherDisplay:10.37,2013-01-08 22:10:00,
2013-01-08 17:11:00,33.0,24.6,30.29,SSW,209,1.8,3.5,71,0.00,CLR,OVC,0.00,WeatherDisplay:10.37,2013-01-08 22:11:00,
2013-01-08 17:15:00,32.6,24.6,30.29,SSW,209,2.3,3.5,72,0.00,CLR,OVC,0.00,WeatherDisplay:10.37,2013-01-08 22:15:00,
2013-01-08 17:16:00,32.6,24.6,30.29,SSW,209,2.5,3.5,72,0.00,CLR,OVC,0.00,WeatherDisplay:10.37,2013-01-08 22:16:00,
2013-01-08 17:20:00,32.4,24.7,30.30,SSW,209,3.2,3.5,73,0.00,CLR,OVC,0.00,WeatherDisplay:10.37,2013-01-08 22:20:00,
2013-01-08 17:21:00,32.3,24.3,30.29,SSW,209,2.8,3.5,72,0.00,CLR,OVC,0.00,WeatherDisplay:10.37,2013-01-08 22:21:00,
2013-01-08 17:25:00,32.1,24.4,30.29,SSW,209,3.4,3.5,73,0.00,CLR,OVC,0.00,WeatherDisplay:10.37,2013-01-08 22:25:00,
2013-01-08 17:26:00,32.1,24.4,30.29,SSW,209,2.7,3.5,73,0.00,CLR,OVC,0.00,WeatherDisplay:10.37,2013-01-08 22:26:00,
2013-01-08 17:30:00,32.0,24.3,30.29,SSW,209,2.1,3.5,73,0.00,CLR,OVC,0.00,WeatherDisplay:10.37,2013-01-08 22:30:00,
2013-01-08 17:31:00,32.0,24.3,30.29,SSW,209,1.2,2.3,73,0.00,CLR,OVC,0.00,WeatherDisplay:10.37,2013-01-08 22:31:00,
2013-01-08 17:35:00,31.8,24.1,30.29,SSW,209,2.2,4.0,73,0.00,CLR,OVC,0.00,WeatherDisplay:10.37,2013-01-08 22:35:00,
2013-01-08 17:36:00,31.7,24.0,30.29,SSW,209,3.4,3.5,73,0.00,CLR,OVC,0.00,WeatherDisplay:10.37,2013-01-08 22:36:00,
2013-01-08 17:40:00,31.3,23.6,30.29,SSW,209,3.4,4.0,73,0.00,CLR,OVC,0.00,WeatherDisplay:10.37,2013-01-08 22:40:00,
2013-01-08 17:41:00,31.2,23.9,30.29,SSW,209,4.0,5.0,74,0.00,CLR,OVC,0.00,WeatherDisplay:10.37,2013-01-08 22:41:00,
2013-01-08 17:45:00,30.9,23.6,30.29,SSW,209,3.9,4.0,74,0.00,CLR,OVC,0.00,WeatherDisplay:10.37,2013-01-08 22:45:00,
2013-01-08 17:46:00,30.8,23.5,30.29,SSW,209,3.6,4.6,74,0.00,CLR,OVC,0.00,WeatherDisplay:10.37,2013-01-08 22:46:00,
2013-01-08 17:47:00,30.8,23.5,30.30,SSW,209,3.9,4.6,74,0.00,CLR,OVC,0.00,WeatherDisplay:10.37,2013-01-08 22:47:00,
2013-01-08 17:50:00,30.5,23.2,30.30,SSW,209,0.8,2.3,74,0.00,CLR,OVC,0.00,WeatherDisplay:10.37,2013-01-08 22:50:00,
2013-01-08 17:51:00,30.4,23.4,30.29,SSW,209,0.6,1.2,75,0.00,CLR,OVC,0.00,WeatherDisplay:10.37,2013-01-08 22:51:00,
2013-01-08 17:52:00,30.4,23.4,30.29,SSW,209,0.7,1.2,75,0.00,CLR,OVC,0.00,WeatherDisplay:10.37,2013-01-08 22:52:00,
2013-01-08 17:55:00,30.1,23.1,30.30,SSW,209,0.7,2.3,75,0.00,CLR,OVC,0.00,WeatherDisplay:10.37,2013-01-08 22:55:00,
2013-01-08 17:56:00,30.0,22.7,30.30,SSW,209,0.2,2.3,74,0.00,CLR,OVC,0.00,WeatherDisplay:10.37,2013-01-08 22:56:00,
2013-01-08 17:57:00,29.9,22.6,30.30,SSW,209,0.4,1.2,74,0.00,CLR,OVC,0.00,WeatherDisplay:10.37,2013-01-08 22:57:00,
2013-01-08 18:00:00,29.6,22.6,30.30,SSW,209,0.5,1.2,75,0.00,CLR,OVC,0.00,WeatherDisplay:10.37,2013-01-08 23:00:00,
2013-01-08 18:01:00,29.6,22.6,30.30,SSW,209,1.0,2.3,75,0.00,CLR,OVC,0.00,WeatherDisplay:10.37,2013-01-08 23:01:00,
2013-01-08 18:02:00,29.5,22.9,30.30,SSW,209,1.7,2.3,76,0.00,CLR,OVC,0.00,WeatherDisplay:10.37,2013-01-08 23:02:00,
2013-01-08 18:05:00,29.3,22.4,30.31,SSW,209,2.4,3.5,75,0.00,CLR,OVC,0.00,WeatherDisplay:10.37,2013-01-08 23:05:00,
2013-01-08 18:06:00,29.1,22.5,30.31,SSW,209,1.7,2.3,76,0.00,CLR,OVC,0.00,WeatherDisplay:10.37,2013-01-08 23:06:00,
2013-01-08 18:07:00,29.0,22.4,30.31,SSW,209,1.2,2.3,76,0.00,CLR,OVC,0.00,WeatherDisplay:10.37,2013-01-08 23:07:00,
2013-01-08 18:10:00,28.9,22.3,30.30,SSW,209,1.2,2.3,76,0.00,CLR,OVC,0.00,WeatherDisplay:10.37,2013-01-08 23:10:00,
2013-01-08 18:12:00,28.8,22.5,30.31,SSW,209,1.7,3.5,77,0.00,CLR,OVC,0.00,WeatherDisplay:10.37,2013-01-08 23:12:00,
2013-01-08 18:15:00,28.8,22.5,30.30,SSW,209,1.9,2.3,77,0.00,CLR,OVC,0.00,WeatherDisplay:10.37,2013-01-08 23:15:00,
2013-01-08 18:17:00,28.8,22.5,30.30,SSW,209,1.9,2.3,77,0.00,CLR,OVC,0.00,WeatherDisplay:10.37,2013-01-08 23:17:00,
2013-01-08 18:20:00,28.8,22.5,30.30,SSW,209,2.2,3.5,77,0.00,CLR,OVC,0.00,WeatherDisplay:10.37,2013-01-08 23:20:00,
2013-01-08 18:22:00,28.8,22.8,30.31,SSW,209,2.1,3.5,78,0.00,CLR,OVC,0.00,WeatherDisplay:10.37,2013-01-08 23:22:00,
2013-01-08 18:23:00,28.8,22.5,30.31,SSW,209,1.8,3.5,77,0.00,CLR,OVC,0.00,WeatherDisplay:10.37,2013-01-08 23:23:00,
2013-01-08 18:25:00,28.8,22.8,30.31,SSW,209,0.3,1.2,78,0.00,CLR,OVC,0.00,WeatherDisplay:10.37,2013-01-08 23:25:00,
2013-01-08 18:27:00,28.7,22.7,30.31,SSW,209,0.0,0.0,78,0.00,CLR,OVC,0.00,WeatherDisplay:10.37,2013-01-08 23:27:00,
2013-01-08 18:28:00,28.7,22.7,30.31,SSW,209,0.0,0.0,78,0.00,CLR,OVC,0.00,WeatherDisplay:10.37,2013-01-08 23:28:00,
2013-01-08 18:30:00,28.6,22.6,30.31,SSW,209,0.2,1.2,78,0.00,CLR,OVC,0.00,WeatherDisplay:10.37,2013-01-08 23:30:00,
2013-01-08 18:32:00,28.6,22.6,30.31,SSW,209,0.2,1.2,78,0.00,CLR,OVC,0.00,WeatherDisplay:10.37,2013-01-08 23:32:00,
2013-01-08 18:33:00,28.6,22.6,30.31,SSW,209,0.2,1.2,78,0.00,CLR,OVC,0.00,WeatherDisplay:10.37,2013-01-08 23:33:00,
2013-01-08 18:35:00,28.5,22.5,30.31,SSW,209,0.1,2.3,78,0.00,CLR,OVC,0.00,WeatherDisplay:10.37,2013-01-08 23:35:00,
2013-01-08 18:37:00,28.5,22.8,30.31,SSW,209,0.0,0.0,79,0.00,CLR,OVC,0.00,WeatherDisplay:10.37,2013-01-08 23:37:00,
2013-01-08 18:38:00,28.5,22.8,30.31,SSW,209,0.2,2.0,79,0.00,CLR,OVC,0.00,WeatherDisplay:10.37,2013-01-08 23:38:00,
2013-01-08 18:40:00,28.6,22.9,30.30,SSW,209,2.0,3.0,79,0.00,CLR,OVC,0.00,WeatherDisplay:10.37,2013-01-08 23:40:00,
2013-01-08 18:42:00,28.5,22.8,30.32,SSW,209,2.8,3.5,79,0.00,CLR,OVC,0.00,WeatherDisplay:10.37,2013-01-08 23:42:00,
2013-01-08 18:43:00,28.4,22.7,30.30,SSW,209,2.5,3.5,79,0.00,CLR,OVC,0.00,WeatherDisplay:10.37,2013-01-08 23:43:00,
2013-01-08 18:45:00,28.3,22.6,30.30,SSW,209,1.9,3.5,79,0.00,CLR,OVC,0.00,WeatherDisplay:10.37,2013-01-08 23:45:00,
2013-01-08 18:47:00,28.3,22.6,30.31,SSW,209,2.0,3.5,79,0.00,CLR,OVC,0.00,WeatherDisplay:10.37,2013-01-08 23:47:00,
2013-01-08 18:48:00,28.2,22.5,30.31,SSW,209,2.2,3.5,79,0.00,CLR,OVC,0.00,WeatherDisplay:10.37,2013-01-08 23:48:00,
2013-01-08 18:50:00,28.2,22.5,30.31,SSW,209,0.8,2.3,79,0.00,CLR,OVC,0.00,WeatherDisplay:10.37,2013-01-08 23:50:00,
2013-01-08 18:53:00,28.1,22.4,30.31,SSW,209,0.0,0.0,79,0.00,CLR,OVC,0.00,WeatherDisplay:10.37,2013-01-08 23:53:00,
2013-01-08 18:55:00,28.1,22.4,30.31,SSW,209,0.0,0.0,79,0.00,CLR,OVC,0.00,WeatherDisplay:10.37,2013-01-08 23:55:00,
2013-01-08 18:58:00,28.1,22.4,30.31,SSW,209,0.0,0.0,79,0.00,CLR,OVC,0.00,WeatherDisplay:10.37,2013-01-08 23:58:00,
2013-01-08 19:01:00,27.8,21.8,30.31,SSW,209,2.0,3.5,78,0.00,CLR,OVC,0.00,WeatherDisplay:10.37,2013-01-09 00:01:00,
2013-01-08 19:03:00,27.5,21.2,30.31,SSW,209,1.7,2.3,77,0.00,CLR,OVC,0.00,WeatherDisplay:10.37,2013-01-09 00:03:00,
2013-01-08 19:04:00,27.1,20.8,30.31,SSW,209,0.9,1.2,77,0.00,CLR,OVC,0.00,WeatherDisplay:10.37,2013-01-09 00:04:00,
2013-01-08 19:06:00,26.3,20.1,30.31,SSW,209,0.9,2.3,77,0.00,CLR,OVC,0.00,WeatherDisplay:10.37,2013-01-09 00:06:00,
2013-01-08 19:08:00,25.7,19.5,30.32,SSW,209,0.7,2.3,77,0.00,CLR,OVC,0.00,WeatherDisplay:10.37,2013-01-09 00:08:00,
2013-01-08 19:09:00,25.6,19.4,30.31,SSW,209,0.1,1.2,77,0.00,CLR,OVC,0.00,WeatherDisplay:10.37,2013-01-09 00:09:00,
2013-01-08 19:11:00,25.2,19.3,30.32,SSW,209,0.5,2.3,78,0.00,CLR,OVC,0.00,WeatherDisplay:10.37,2013-01-09 00:11:00,
2013-01-08 19:13:00,25.0,19.1,30.32,SSW,209,1.5,2.3,78,0.00,CLR,OVC,0.00,WeatherDisplay:10.37,2013-01-09 00:13:00,
2013-01-08 19:14:00,25.0,19.4,30.32,SSW,209,1.2,2.3,79,0.00,CLR,OVC,0.00,WeatherDisplay:10.37,2013-01-09 00:14:00,
2013-01-08 19:16:00,25.0,19.7,30.32,SSW,209,0.9,2.3,80,0.00,CLR,OVC,0.00,WeatherDisplay:10.37,2013-01-09 00:16:00,
2013-01-08 19:18:00,25.1,19.8,30.32,SSW,209,0.8,1.2,80,0.00,CLR,OVC,0.00,WeatherDisplay:10.37,2013-01-09 00:18:00,
2013-01-08 19:19:00,25.2,19.9,30.32,SSW,209,0.6,1.2,80,0.00,CLR,OVC,0.00,WeatherDisplay:10.37,2013-01-09 00:19:00,
2013-01-08 19:21:00,25.4,20.4,30.32,SSW,209,0.6,1.2,81,0.00,CLR,OVC,0.00,WeatherDisplay:10.37,2013-01-09 00:21:00,
2013-01-08 19:23:00,25.6,20.9,30.32,SSW,209,0.0,0.0,82,0.00,CLR,OVC,0.00,WeatherDisplay:10.37,2013-01-09 00:23:00,
2013-01-08 19:24:00,25.7,21.0,30.32,SSW,209,0.1,0.0,82,0.00,CLR,OVC,0.00,WeatherDisplay:10.37,2013-01-09 00:24:00,
2013-01-08 19:26:00,25.9,21.2,30.32,SSW,209,1.4,2.3,82,0.00,CLR,OVC,0.00,WeatherDisplay:10.37,2013-01-09 00:26:00,
2013-01-08 19:28:00,26.2,21.7,30.32,SSW,209,0.5,1.2,83,0.00,CLR,OVC,0.00,WeatherDisplay:10.37,2013-01-09 00:28:00,
2013-01-08 19:29:00,26.2,21.7,30.32,SSW,209,0.3,1.2,83,0.00,CLR,OVC,0.00,WeatherDisplay:10.37,2013-01-09 00:29:00,
2013-01-08 19:31:00,26.4,21.7,30.33,SSW,209,0.0,0.0,82,0.00,CLR,OVC,0.00,WeatherDisplay:10.37,2013-01-09 00:31:00,
2013-01-08 19:33:00,26.4,21.9,30.33,SSW,209,0.1,2.3,83,0.00,CLR,OVC,0.00,WeatherDisplay:10.37,2013-01-09 00:33:00,
2013-01-08 19:34:00,26.4,21.7,30.32,SSW,209,0.2,1.2,82,0.00,CLR,OVC,0.00,WeatherDisplay:10.37,2013-01-09 00:34:00,
2013-01-08 19:36:00,26.3,21.6,30.33,SSW,209,0.6,1.0,82,0.00,CLR,OVC,0.00,WeatherDisplay:10.37,2013-01-09 00:36:00,
2013-01-08 19:38:00,26.1,21.4,30.33,SSW,209,1.0,2.3,82,0.00,CLR,OVC,0.00,WeatherDisplay:10.37,2013-01-09 00:38:00,
2013-01-08 19:39:00,26.0,21.3,30.33,SSW,209,0.7,2.3,82,0.00,CLR,OVC,0.00,WeatherDisplay:10.37,2013-01-09 00:39:00,
2013-01-08 19:41:00,25.9,21.2,30.33,SSW,209,0.9,1.2,82,0.00,CLR,OVC,0.00,WeatherDisplay:10.37,2013-01-09 00:41:00,
2013-01-08 19:43:00,25.9,21.4,30.33,SSW,209,0.8,1.2,83,0.00,CLR,OVC,0.00,WeatherDisplay:10.37,2013-01-09 00:43:00,
2013-01-08 19:44:00,26.0,21.8,30.33,SSW,209,0.9,1.2,84,0.00,CLR,OVC,0.00,WeatherDisplay:10.37,2013-01-09 00:44:00,
2013-01-08 19:46:00,26.2,22.0,30.33,SSW,209,1.2,2.3,84,0.00,CLR,OVC,0.00,WeatherDisplay:10.37,2013-01-09 00:46:00,
2013-01-08 19:48:00,26.6,22.4,30.33,SSW,209,0.9,2.3,84,0.00,CLR,OVC,0.00,WeatherDisplay:10.37,2013-01-09 00:48:00,
2013-01-08 19:49:00,26.7,22.5,30.33,SSW,209,0.9,1.2,84,0.00,CLR,OVC,0.00,WeatherDisplay:10.37,2013-01-09 00:49:00,
2013-01-08 19:51:00,26.9,22.7,30.33,SSW,209,0.1,1.2,84,0.00,CLR,OVC,0.00,WeatherDisplay:10.37,2013-01-09 00:51:00,
2013-01-08 19:54:00,27.0,22.8,30.33,SSW,209,0.0,0.0,84,0.00,CLR,OVC,0.00,WeatherDisplay:10.37,2013-01-09 00:54:00,
2013-01-08 19:55:00,27.0,22.8,30.33,SSW,209,0.0,0.0,84,0.00,CLR,OVC,0.00,WeatherDisplay:10.37,2013-01-09 00:55:00,
2013-01-08 19:56:00,27.0,22.8,30.33,SSW,209,0.0,1.0,84,0.00,CLR,OVC,0.00,WeatherDisplay:10.37,2013-01-09 00:56:00,
2013-01-08 19:59:00,26.9,22.1,30.33,SSW,209,0.3,1.2,82,0.00,CLR,OVC,0.00,WeatherDisplay:10.37,2013-01-09 00:59:00,
2013-01-08 20:00:00,26.8,22.0,30.33,SSW,209,0.2,1.2,82,0.00,CLR,OVC,0.00,WeatherDisplay:10.37,2013-01-09 01:00:00,
2013-01-08 20:01:00,26.6,21.8,30.34,SSW,209,0.7,1.2,82,0.00,CLR,OVC,0.00,WeatherDisplay:10.37,2013-01-09 01:01:00,
2013-01-08 20:04:00,26.3,21.6,30.34,SSW,209,2.2,3.5,82,0.00,CLR,OVC,0.00,WeatherDisplay:10.37,2013-01-09 01:04:00,
2013-01-08 20:05:00,26.2,21.5,30.34,SSW,209,2.8,3.5,82,0.00,CLR,OVC,0.00,WeatherDisplay:10.37,2013-01-09 01:05:00,
2013-01-08 20:06:00,26.1,21.4,30.34,SSW,209,2.6,3.5,82,0.00,CLR,OVC,0.00,WeatherDisplay:10.37,2013-01-09 01:06:00,
2013-01-08 20:09:00,26.0,21.5,30.34,SSW,209,1.0,2.3,83,0.00,CLR,OVC,0.00,WeatherDisplay:10.37,2013-01-09 01:09:00,
2013-01-08 20:10:00,25.9,21.4,30.34,SSW,209,0.9,2.0,83,0.00,CLR,OVC,0.00,WeatherDisplay:10.37,2013-01-09 01:10:00,
2013-01-08 20:11:00,25.8,21.1,30.34,SSW,209,1.3,2.3,82,0.00,CLR,OVC,0.00,WeatherDisplay:10.37,2013-01-09 01:11:00,
2013-01-08 20:14:00,25.6,20.9,30.34,SSW,209,1.0,2.3,82,0.00,CLR,OVC,0.00,WeatherDisplay:10.37,2013-01-09 01:14:00,
2013-01-08 20:15:00,25.5,20.8,30.35,SSW,209,1.0,2.3,82,0.00,CLR,OVC,0.00,WeatherDisplay:10.37,2013-01-09 01:15:00,
2013-01-08 20:17:00,25.4,21.0,30.34,SSW,209,0.7,1.2,83,0.00,CLR,OVC,0.00,WeatherDisplay:10.37,2013-01-09 01:17:00,
2013-01-08 20:19:00,25.3,20.6,30.34,SSW,209,0.9,2.3,82,0.00,CLR,OVC,0.00,WeatherDisplay:10.37,2013-01-09 01:19:00,
2013-01-08 20:20:00,25.3,20.9,30.34,SSW,209,0.9,2.3,83,0.00,CLR,OVC,0.00,WeatherDisplay:10.37,2013-01-09 01:20:00,
2013-01-08 20:22:00,25.2,20.8,30.34,SSW,209,0.0,1.2,83,0.00,CLR,OVC,0.00,WeatherDisplay:10.37,2013-01-09 01:22:00,
2013-01-08 20:24:00,25.1,20.7,30.34,SSW,209,0.0,0.0,83,0.00,CLR,OVC,0.00,WeatherDisplay:10.37,2013-01-09 01:24:00,
2013-01-08 20:25:00,25.1,20.7,30.34,SSW,209,0.0,0.0,83,0.00,CLR,OVC,0.00,WeatherDisplay:10.37,2013-01-09 01:25:00,
2013-01-08 20:27:00,25.0,20.6,30.34,SSW,209,0.2,1.2,83,0.00,CLR,OVC,0.00,WeatherDisplay:10.37,2013-01-09 01:27:00,
2013-01-08 20:30:00,25.0,20.8,30.34,SSW,209,0.0,0.0,84,0.00,CLR,OVC,0.00,WeatherDisplay:10.37,2013-01-09 01:30:00,
2013-01-08 20:31:00,24.9,20.8,30.34,SSW,209,0.0,0.0,84,0.00,CLR,OVC,0.00,WeatherDisplay:10.37,2013-01-09 01:31:00,
2013-01-08 20:32:00,24.9,20.8,30.34,SSW,209,0.8,2.0,84,0.00,CLR,OVC,0.00,WeatherDisplay:10.37,2013-01-09 01:32:00,
2013-01-08 20:35:00,24.9,20.8,30.34,SSW,209,1.1,2.3,84,0.00,CLR,OVC,0.00,WeatherDisplay:10.37,2013-01-09 01:35:00,
2013-01-08 20:36:00,25.0,20.8,30.34,SSW,209,0.6,2.3,84,0.00,CLR,OVC,0.00,WeatherDisplay:10.37,2013-01-09 01:36:00,
2013-01-08 20:37:00,25.1,21.2,30.34,SSW,209,0.2,1.2,85,0.00,CLR,OVC,0.00,WeatherDisplay:10.37,2013-01-09 01:37:00,
2013-01-08 20:40:00,25.2,21.3,30.35,SSW,209,0.0,1.2,85,0.00,CLR,OVC,0.00,WeatherDisplay:10.37,2013-01-09 01:40:00,
2013-01-08 20:41:00,25.2,21.3,30.35,SSW,209,0.0,0.0,85,0.00,CLR,OVC,0.00,WeatherDisplay:10.37,2013-01-09 01:41:00,
2013-01-08 20:42:00,25.2,21.3,30.35,SSW,209,0.0,1.2,85,0.00,CLR,OVC,0.00,WeatherDisplay:10.37,2013-01-09 01:42:00,
2013-01-08 20:45:00,25.2,21.3,30.34,SSW,209,1.8,3.5,85,0.00,CLR,OVC,0.00,WeatherDisplay:10.37,2013-01-09 01:45:00,
2013-01-08 20:46:00,25.2,21.3,30.34,SSW,209,1.2,2.3,85,0.00,CLR,OVC,0.00,WeatherDisplay:10.37,2013-01-09 01:46:00,
2013-01-08 20:48:00,25.2,21.3,30.35,SSW,209,1.3,2.3,85,0.00,CLR,OVC,0.00,WeatherDisplay:10.37,2013-01-09 01:48:00,
2013-01-08 20:50:00,25.2,21.3,30.35,SSW,209,0.7,2.3,85,0.00,CLR,OVC,0.00,WeatherDisplay:10.37,2013-01-09 01:50:00,
2013-01-08 20:51:00,25.1,20.9,30.35,SSW,209,0.6,1.2,84,0.00,CLR,OVC,0.00,WeatherDisplay:10.37,2013-01-09 01:51:00,
2013-01-08 20:53:00,25.1,21.2,30.35,SSW,209,1.5,2.3,85,0.00,CLR,OVC,0.00,WeatherDisplay:10.37,2013-01-09 01:53:00,
2013-01-08 20:55:00,24.9,20.8,30.34,SSW,209,0.0,0.0,84,0.00,CLR,OVC,0.00,WeatherDisplay:10.37,2013-01-09 01:55:00,
2013-01-08 20:56:00,24.8,20.7,30.34,SSW,209,0.0,0.0,84,0.00,CLR,OVC,0.00,WeatherDisplay:10.37,2013-01-09 01:56:00,
2013-01-08 20:58:00,24.7,20.6,30.34,SSW,209,0.0,0.0,84,0.00,CLR,OVC,0.00,WeatherDisplay:10.37,2013-01-09 01:58:00,
2013-01-08 21:00:00,24.5,20.4,30.34,SSW,209,1.4,2.3,84,0.00,CLR,OVC,0.00,WeatherDisplay:10.37,2013-01-09 02:00:00,
2013-01-08 21:01:00,24.3,20.2,30.35,SSW,209,1.1,2.3,84,0.00,CLR,OVC,0.00,WeatherDisplay:10.37,2013-01-09 02:01:00,
2013-01-08 21:02:00,24.3,20.2,30.35,SSW,209,1.2,2.3,84,0.00,CLR,OVC,0.00,WeatherDisplay:10.37,2013-01-09 02:02:00,
2013-01-08 21:03:00,24.3,20.2,30.34,SSW,209,1.6,2.3,84,0.00,CLR,OVC,0.00,WeatherDisplay:10.37,2013-01-09 02:03:00,
2013-01-08 21:06:00,24.2,20.3,30.34,SSW,209,3.2,3.5,85,0.00,CLR,OVC,0.00,WeatherDisplay:10.37,2013-01-09 02:06:00,
2013-01-08 21:07:00,24.2,20.3,30.35,SSW,209,2.8,3.5,85,0.00,CLR,OVC,0.00,WeatherDisplay:10.37,2013-01-09 02:07:00,
2013-01-08 21:08:00,24.2,20.3,30.34,SSW,209,2.0,3.5,85,0.00,CLR,OVC,0.00,WeatherDisplay:10.37,2013-01-09 02:08:00,
2013-01-08 21:11:00,24.1,20.2,30.34,SSW,209,1.1,2.3,85,0.00,CLR,OVC,0.00,WeatherDisplay:10.37,2013-01-09 02:11:00,
2013-01-08 21:12:00,24.0,20.1,30.34,SSW,209,0.3,2.3,85,0.00,CLR,OVC,0.00,WeatherDisplay:10.37,2013-01-09 02:12:00,
2013-01-08 21:13:00,24.0,19.9,30.34,SSW,209,0.2,1.2,84,0.00,CLR,OVC,0.00,WeatherDisplay:10.37,2013-01-09 02:13:00,
2013-01-08 21:16:00,23.8,19.7,30.34,SSW,209,0.7,1.2,84,0.00,CLR,OVC,0.00,WeatherDisplay:10.37,2013-01-09 02:16:00,
2013-01-08 21:17:00,23.7,19.9,30.34,SSW,209,0.8,1.2,85,0.00,CLR,OVC,0.00,WeatherDisplay:10.37,2013-01-09 02:17:00,
2013-01-08 21:18:00,23.7,19.6,30.34,SSW,209,1.0,1.2,84,0.00,CLR,OVC,0.00,WeatherDisplay:10.37,2013-01-09 02:18:00,
2013-01-08 21:21:00,23.5,19.4,30.35,SSW,209,0.7,2.3,84,0.00,CLR,OVC,0.00,WeatherDisplay:10.37,2013-01-09 02:21:00,
2013-01-08 21:22:00,23.5,19.7,30.35,SSW,209,0.1,1.2,85,0.00,CLR,OVC,0.00,WeatherDisplay:10.37,2013-01-09 02:22:00,
2013-01-08 21:23:00,23.4,19.3,30.35,SSW,209,0.0,1.2,84,0.00,CLR,OVC,0.00,WeatherDisplay:10.37,2013-01-09 02:23:00,
2013-01-08 21:26:00,23.3,19.2,30.34,SSW,209,0.2,2.0,84,0.00,CLR,OVC,0.00,WeatherDisplay:10.37,2013-01-09 02:26:00,
2013-01-08 21:27:00,23.3,19.5,30.34,SSW,209,1.2,2.3,85,0.00,CLR,OVC,0.00,WeatherDisplay:10.37,2013-01-09 02:27:00,
2013-01-08 21:28:00,23.3,19.5,30.34,SSW,209,1.4,2.3,85,0.00,CLR,OVC,0.00,WeatherDisplay:10.37,2013-01-09 02:28:00,
2013-01-08 21:31:00,23.2,19.4,30.34,SSW,209,0.6,1.2,85,0.00,CLR,OVC,0.00,WeatherDisplay:10.37,2013-01-09 02:31:00,
2013-01-08 21:32:00,23.2,19.4,30.34,SSW,209,0.2,1.2,85,0.00,CLR,OVC,0.00,WeatherDisplay:10.37,2013-01-09 02:32:00,
2013-01-08 21:33:00,23.2,19.4,30.34,SSW,209,0.1,1.2,85,0.00,CLR,OVC,0.00,WeatherDisplay:10.37,2013-01-09 02:33:00,
2013-01-08 21:37:00,23.0,19.2,30.34,SSW,209,1.1,2.3,85,0.00,CLR,OVC,0.00,WeatherDisplay:10.37,2013-01-09 02:37:00,
2013-01-08 21:38:00,22.9,18.8,30.34,SSW,209,1.0,2.3,84,0.00,CLR,OVC,0.00,WeatherDisplay:10.37,2013-01-09 02:38:00,
2013-01-08 21:42:00,22.4,18.6,30.34,SSW,209,0.0,0.0,85,0.00,CLR,OVC,0.00,WeatherDisplay:10.37,2013-01-09 02:42:00,
2013-01-08 21:43:00,22.4,18.6,30.34,SSW,209,0.0,0.0,85,0.00,CLR,OVC,0.00,WeatherDisplay:10.37,2013-01-09 02:43:00,
2013-01-08 21:47:00,21.7,17.9,30.34,SSW,209,2.9,3.5,85,0.00,CLR,OVC,0.00,WeatherDisplay:10.37,2013-01-09 02:47:00,
2013-01-08 21:48:00,21.7,17.9,30.34,SSW,209,2.9,3.5,85,0.00,CLR,OVC,0.00,WeatherDisplay:10.37,2013-01-09 02:48:00,
2013-01-08 21:53:00,21.4,17.6,30.34,SSW,209,0.6,1.2,85,0.00,CLR,OVC,0.00,WeatherDisplay:10.37,2013-01-09 02:53:00,
2013-01-08 21:58:00,21.3,17.8,30.34,SSW,209,1.2,2.3,86,0.00,CLR,OVC,0.00,WeatherDisplay:10.37,2013-01-09 02:58:00,
2013-01-08 22:03:00,21.4,17.9,30.34,SSW,209,0.0,0.0,86,0.00,CLR,OVC,0.00,WeatherDisplay:10.37,2013-01-09 03:03:00,
2013-01-08 22:08:00,21.3,17.8,30.34,SSW,209,1.2,2.3,86,0.00,CLR,OVC,0.00,WeatherDisplay:10.37,2013-01-09 03:08:00,
2013-01-08 22:13:00,21.3,18.0,30.34,SSW,209,0.0,0.0,87,0.00,CLR,OVC,0.00,WeatherDisplay:10.37,2013-01-09 03:13:00,
2013-01-08 22:14:00,21.3,17.8,30.34,SSW,209,0.0,0.0,86,0.00,CLR,OVC,0.00,WeatherDisplay:10.37,2013-01-09 03:14:00,
2013-01-08 22:18:00,21.1,17.6,30.34,SSW,209,0.7,2.0,86,0.00,CLR,OVC,0.00,WeatherDisplay:10.37,2013-01-09 03:18:00,
2013-01-08 22:20:00,20.9,17.4,30.34,SSW,209,2.2,3.5,86,0.00,CLR,OVC,0.00,WeatherDisplay:10.37,2013-01-09 03:20:00,
2013-01-08 22:23:00,20.6,17.1,30.35,SSW,209,2.6,3.5,86,0.00,CLR,OVC,0.00,WeatherDisplay:10.37,2013-01-09 03:23:00,
2013-01-08 22:25:00,20.5,17.0,30.34,SSW,209,1.8,3.5,86,0.00,CLR,OVC,0.00,WeatherDisplay:10.37,2013-01-09 03:25:00,
2013-01-08 22:28:00,20.3,16.8,30.35,SSW,209,1.7,3.5,86,0.00,CLR,OVC,0.00,WeatherDisplay:10.37,2013-01-09 03:28:00,
2013-01-08 22:29:00,20.3,16.8,30.35,SSW,209,1.5,2.3,86,0.00,CLR,OVC,0.00,WeatherDisplay:10.37,2013-01-09 03:29:00,
2013-01-08 22:30:00,20.1,16.6,30.35,SSW,209,1.5,2.3,86,0.00,CLR,OVC,0.00,WeatherDisplay:10.37,2013-01-09 03:30:00,
2013-01-08 22:33:00,20.0,16.8,30.35,SSW,209,2.8,3.5,87,0.00,CLR,OVC,0.00,WeatherDisplay:10.37,2013-01-09 03:33:00,
2013-01-08 22:34:00,20.0,16.8,30.35,SSW,209,2.8,4.0,87,0.00,CLR,OVC,0.00,WeatherDisplay:10.37,2013-01-09 03:34:00,
2013-01-08 22:35:00,20.0,16.8,30.35,SSW,209,3.3,4.0,87,0.00,CLR,OVC,0.00,WeatherDisplay:10.37,2013-01-09 03:35:00,
2013-01-08 22:38:00,20.4,17.4,30.35,SSW,209,2.2,3.5,88,0.00,CLR,OVC,0.00,WeatherDisplay:10.37,2013-01-09 03:38:00,
2013-01-08 22:39:00,20.4,17.4,30.35,SSW,209,2.2,3.5,88,0.00,CLR,OVC,0.00,WeatherDisplay:10.37,2013-01-09 03:39:00,
2013-01-08 22:40:00,20.6,17.6,30.35,SSW,209,2.0,3.5,88,0.00,CLR,OVC,0.00,WeatherDisplay:10.37,2013-01-09 03:40:00,
2013-01-08 22:43:00,20.8,17.8,30.35,SSW,209,0.0,1.2,88,0.00,CLR,OVC,0.00,WeatherDisplay:10.37,2013-01-09 03:43:00,
2013-01-08 22:44:00,20.9,17.9,30.35,SSW,209,0.0,0.0,88,0.00,CLR,OVC,0.00,WeatherDisplay:10.37,2013-01-09 03:44:00,
2013-01-08 22:45:00,20.9,17.9,30.35,SSW,209,0.0,0.0,88,0.00,CLR,OVC,0.00,WeatherDisplay:10.37,2013-01-09 03:45:00,
2013-01-08 22:48:00,21.0,18.0,30.35,SSW,209,0.0,0.0,88,0.00,CLR,OVC,0.00,WeatherDisplay:10.37,2013-01-09 03:48:00,
2013-01-08 22:49:00,21.0,18.0,30.35,SSW,209,0.0,0.0,88,0.00,CLR,OVC,0.00,WeatherDisplay:10.37,2013-01-09 03:49:00,
2013-01-08 22:50:00,20.9,17.6,30.35,SSW,209,0.0,0.0,87,0.00,CLR,OVC,0.00,WeatherDisplay:10.37,2013-01-09 03:50:00,
2013-01-08 22:53:00,20.7,17.4,30.35,SSW,209,0.0,0.0,87,0.00,CLR,OVC,0.00,WeatherDisplay:10.37,2013-01-09 03:53:00,
2013-01-08 22:54:00,20.6,17.3,30.35,SSW,209,0.0,0.0,87,0.00,CLR,OVC,0.00,WeatherDisplay:10.37,2013-01-09 03:54:00,
2013-01-08 22:55:00,20.6,17.3,30.35,SSW,209,0.0,0.0,87,0.00,CLR,OVC,0.00,WeatherDisplay:10.37,2013-01-09 03:55:00,
2013-01-08 22:56:00,20.6,17.3,30.35,SSW,209,0.0,0.0,87,0.00,CLR,OVC,0.00,WeatherDisplay:10.37,2013-01-09 03:56:00,
2013-01-08 22:58:00,20.5,17.5,30.35,SSW,209,0.0,0.0,88,0.00,CLR,OVC,0.00,WeatherDisplay:10.37,2013-01-09 03:58:00,
2013-01-08 23:00:00,20.4,17.4,30.35,SSW,209,0.0,0.0,88,0.00,CLR,OVC,0.00,WeatherDisplay:10.37,2013-01-09 04:00:00,
2013-01-08 23:01:00,20.5,17.5,30.35,SSW,209,0.0,0.0,88,0.00,CLR,OVC,0.00,WeatherDisplay:10.37,2013-01-09 04:01:00,
2013-01-08 23:04:00,20.5,17.5,30.35,SSW,209,0.3,2.3,88,0.00,CLR,OVC,0.00,WeatherDisplay:10.37,2013-01-09 04:04:00,
2013-01-08 23:05:00,20.6,17.9,30.35,SSW,209,1.4,2.3,89,0.00,CLR,OVC,0.00,WeatherDisplay:10.37,2013-01-09 04:05:00,
2013-01-08 23:06:00,20.6,17.9,30.35,SSW,209,0.8,2.3,89,0.00,CLR,OVC,0.00,WeatherDisplay:10.37,2013-01-09 04:06:00,
2013-01-08 23:09:00,20.4,17.4,30.35,SSW,209,0.0,0.0,88,0.00,CLR,OVC,0.00,WeatherDisplay:10.37,2013-01-09 04:09:00,
2013-01-08 23:10:00,20.2,17.2,30.35,SSW,209,0.0,0.0,88,0.00,CLR,OVC,0.00,WeatherDisplay:10.37,2013-01-09 04:10:00,
2013-01-08 23:11:00,20.1,16.9,30.35,SSW,209,0.0,0.0,87,0.00,CLR,OVC,0.00,WeatherDisplay:10.37,2013-01-09 04:11:00,
2013-01-08 23:14:00,19.9,16.7,30.35,SSW,209,0.0,0.0,87,0.00,CLR,OVC,0.00,WeatherDisplay:10.37,2013-01-09 04:14:00,
2013-01-08 23:15:00,19.8,16.6,30.35,SSW,209,0.0,0.0,87,0.00,CLR,OVC,0.00,WeatherDisplay:10.37,2013-01-09 04:15:00,
2013-01-08 23:16:00,19.6,16.4,30.35,SSW,209,0.0,0.0,87,0.00,CLR,OVC,0.00,WeatherDisplay:10.37,2013-01-09 04:16:00,
2013-01-08 23:19:00,19.3,16.1,30.35,SSW,209,0.0,0.0,87,0.00,CLR,OVC,0.00,WeatherDisplay:10.37,2013-01-09 04:19:00,
2013-01-08 23:20:00,19.1,15.9,30.35,SSW,209,0.0,0.0,87,0.00,CLR,OVC,0.00,WeatherDisplay:10.37,2013-01-09 04:20:00,
2013-01-08 23:21:00,19.1,15.9,30.35,SSW,209,0.6,2.0,87,0.00,CLR,OVC,0.00,WeatherDisplay:10.37,2013-01-09 04:21:00,
2013-01-08 23:24:00,18.9,15.9,30.35,SSW,209,1.8,3.5,88,0.00,CLR,OVC,0.00,WeatherDisplay:10.37,2013-01-09 04:24:00,
2013-01-08 23:25:00,18.9,15.9,30.35,SSW,209,1.2,2.3,88,0.00,CLR,OVC,0.00,WeatherDisplay:10.37,2013-01-09 04:25:00,
2013-01-08 23:26:00,19.0,16.0,30.35,SSW,209,1.2,2.3,88,0.00,CLR,OVC,0.00,WeatherDisplay:10.37,2013-01-09 04:26:00,
2013-01-08 23:29:00,19.2,16.5,30.35,SSW,209,1.5,2.3,89,0.00,CLR,OVC,0.00,WeatherDisplay:10.37,2013-01-09 04:29:00,
2013-01-08 23:30:00,19.3,16.6,30.34,SSW,209,0.3,2.3,89,0.00,CLR,OVC,0.00,WeatherDisplay:10.37,2013-01-09 04:30:00,
2013-01-08 23:31:00,19.3,16.6,30.35,SSW,209,0.1,1.2,89,0.00,CLR,OVC,0.00,WeatherDisplay:10.37,2013-01-09 04:31:00,
2013-01-08 23:34:00,19.8,17.1,30.34,SSW,209,0.0,0.0,89,0.00,CLR,OVC,0.00,WeatherDisplay:10.37,2013-01-09 04:34:00,
2013-01-08 23:36:00,19.9,17.2,30.34,SSW,209,0.0,0.0,89,0.00,CLR,OVC,0.00,WeatherDisplay:10.37,2013-01-09 04:36:00,
2013-01-08 23:37:00,19.9,16.9,30.34,SSW,209,0.0,0.0,88,0.00,CLR,OVC,0.00,WeatherDisplay:10.37,2013-01-09 04:37:00,
2013-01-08 23:39:00,19.8,16.8,30.35,SSW,209,0.0,0.0,88,0.00,CLR,OVC,0.00,WeatherDisplay:10.37,2013-01-09 04:39:00,
2013-01-08 23:41:00,19.8,17.1,30.35,SSW,209,0.0,0.0,89,0.00,CLR,OVC,0.00,WeatherDisplay:10.37,2013-01-09 04:41:00,
2013-01-08 23:42:00,19.8,17.1,30.34,SSW,209,0.0,0.0,89,0.00,CLR,OVC,0.00,WeatherDisplay:10.37,2013-01-09 04:42:00,
2013-01-08 23:44:00,19.7,16.7,30.35,SSW,209,0.0,0.0,88,0.00,CLR,OVC,0.00,WeatherDisplay:10.37,2013-01-09 04:44:00,
2013-01-08 23:46:00,19.7,17.0,30.34,SSW,209,0.0,0.0,89,0.00,CLR,OVC,0.00,WeatherDisplay:10.37,2013-01-09 04:46:00,
2013-01-08 23:47:00,19.7,17.0,30.35,SSW,209,0.0,0.0,89,0.00,CLR,OVC,0.00,WeatherDisplay:10.37,2013-01-09 04:47:00,
2013-01-08 23:49:00,19.7,17.0,30.35,SSW,209,1.1,1.2,89,0.00,CLR,OVC,0.00,WeatherDisplay:10.37,2013-01-09 04:49:00,
2013-01-08 23:51:00,19.7,17.0,30.35,SSW,209,0.0,1.2,89,0.00,CLR,OVC,0.00,WeatherDisplay:10.37,2013-01-09 04:51:00,
2013-01-08 23:52:00,19.7,17.0,30.35,SSW,209,0.0,0.0,89,0.00,CLR,OVC,0.00,WeatherDisplay:10.37,2013-01-09 04:52:00,
2013-01-08 23:54:00,19.7,17.0,30.35,SSW,209,0.0,0.0,89,0.00,CLR,OVC,0.00,WeatherDisplay:10.37,2013-01-09 04:54:00,
2013-01-08 23:56:00,19.8,17.1,30.35,SSW,209,0.0,0.0,89,0.00,CLR,OVC,0.00,WeatherDisplay:10.37,2013-01-09 04:56:00,
2013-01-08 23:57:00,19.8,17.1,30.35,SSW,209,0.0,0.0,89,0.00,CLR,OVC,0.00,WeatherDisplay:10.37,2013-01-09 04:57:00,
2013-01-08 23:59:00,19.8,17.1,30.35,SSW,209,0.0,0.0,89,0.00,CLR,OVC,0.00,WeatherDisplay:10.37,2013-01-09 04:59:00,